<?xml version="1.0" encoding="utf-8"?>
<gpx xmlns:xsi="http://www.w3.org/2001/XMLSchema-instance" xmlns:xsd="http://www.w3.org/2001/XMLSchema" version="1.1" creator="Shapelink.com" xmlns="http://www.topografix.com/GPX/1/1" xmlns:gpxtpx="http://www.garmin.com/xmlschemas/TrackPointExtension/v1">
  <metadata>
    <name>Ciclismo 21.75 km, 2019-12-15</name>
    <desc></desc>
    <author><name>Per Rooth</name></author> 
    <time>2019-12-15T13:42:59Z</time>
  </metadata>
  <trk>
    <name>Ciclismo 21.75 km, 2019-12-15</name>
    <trkseg>
      <trkpt lat="56.873260739653" lon="14.792822450347">
        <ele>175</ele>
        <time>2019-12-15T13:42:59Z</time>
      </trkpt>
      <trkpt lat="56.8730271361" lon="14.792785569987">
        <ele>175.4</ele>
        <time>2019-12-15T13:43:06Z</time>
      </trkpt>
      <trkpt lat="56.872933761734" lon="14.792813649352">
        <ele>175.6</ele>
        <time>2019-12-15T13:43:08Z</time>
      </trkpt>
      <trkpt lat="56.872711222289" lon="14.792967373398">
        <ele>176</ele>
        <time>2019-12-15T13:43:13Z</time>
      </trkpt>
      <trkpt lat="56.87261558481" lon="14.792965948475">
        <ele>176</ele>
        <time>2019-12-15T13:43:15Z</time>
      </trkpt>
      <trkpt lat="56.872078472658" lon="14.792936025092">
        <ele>175.8</ele>
        <time>2019-12-15T13:43:25Z</time>
      </trkpt>
      <trkpt lat="56.87184109725" lon="14.79304264286">
        <ele>176.2</ele>
        <time>2019-12-15T13:43:30Z</time>
      </trkpt>
      <trkpt lat="56.871586036033" lon="14.793149763542">
        <ele>176.2</ele>
        <time>2019-12-15T13:43:35Z</time>
      </trkpt>
      <trkpt lat="56.871468270338" lon="14.793142974203">
        <ele>176.2</ele>
        <time>2019-12-15T13:43:37Z</time>
      </trkpt>
      <trkpt lat="56.871352181023" lon="14.793102070531">
        <ele>176.2</ele>
        <time>2019-12-15T13:43:39Z</time>
      </trkpt>
      <trkpt lat="56.870927051055" lon="14.792871484462">
        <ele>175.2</ele>
        <time>2019-12-15T13:43:48Z</time>
      </trkpt>
      <trkpt lat="56.87037594113" lon="14.79260510768">
        <ele>174.2</ele>
        <time>2019-12-15T13:43:58Z</time>
      </trkpt>
      <trkpt lat="56.870315842907" lon="14.792567137673">
        <ele>174</ele>
        <time>2019-12-15T13:43:59Z</time>
      </trkpt>
      <trkpt lat="56.870258678349" lon="14.792521707775">
        <ele>173.8</ele>
        <time>2019-12-15T13:44:00Z</time>
      </trkpt>
      <trkpt lat="56.87014208612" lon="14.792402768614">
        <ele>173.4</ele>
        <time>2019-12-15T13:44:02Z</time>
      </trkpt>
      <trkpt lat="56.869929688774" lon="14.792184168662">
        <ele>173</ele>
        <time>2019-12-15T13:44:06Z</time>
      </trkpt>
      <trkpt lat="56.86986296885" lon="14.79202843296">
        <ele>173</ele>
        <time>2019-12-15T13:44:08Z</time>
      </trkpt>
      <trkpt lat="56.86983782315" lon="14.791936986431">
        <ele>172.8</ele>
        <time>2019-12-15T13:44:09Z</time>
      </trkpt>
      <trkpt lat="56.869768672475" lon="14.791762307635">
        <ele>172.6</ele>
        <time>2019-12-15T13:44:11Z</time>
      </trkpt>
      <trkpt lat="56.869649062762" lon="14.791484531469">
        <ele>171.8</ele>
        <time>2019-12-15T13:44:14Z</time>
      </trkpt>
      <trkpt lat="56.869602627036" lon="14.791406831256">
        <ele>171.4</ele>
        <time>2019-12-15T13:44:15Z</time>
      </trkpt>
      <trkpt lat="56.86948662154" lon="14.791239612351">
        <ele>170.4</ele>
        <time>2019-12-15T13:44:17Z</time>
      </trkpt>
      <trkpt lat="56.86942040453" lon="14.79116761183">
        <ele>170</ele>
        <time>2019-12-15T13:44:18Z</time>
      </trkpt>
      <trkpt lat="56.869308506165" lon="14.791060910243">
        <ele>169.6</ele>
        <time>2019-12-15T13:44:20Z</time>
      </trkpt>
      <trkpt lat="56.869256789842" lon="14.790987903894">
        <ele>169.4</ele>
        <time>2019-12-15T13:44:21Z</time>
      </trkpt>
      <trkpt lat="56.869138437414" lon="14.790778356394">
        <ele>169</ele>
        <time>2019-12-15T13:44:24Z</time>
      </trkpt>
      <trkpt lat="56.869041123555" lon="14.790559840261">
        <ele>169.6</ele>
        <time>2019-12-15T13:44:27Z</time>
      </trkpt>
      <trkpt lat="56.868977672572" lon="14.790390190605">
        <ele>170.4</ele>
        <time>2019-12-15T13:44:30Z</time>
      </trkpt>
      <trkpt lat="56.868919586005" lon="14.790231102143">
        <ele>172</ele>
        <time>2019-12-15T13:44:33Z</time>
      </trkpt>
      <trkpt lat="56.868860828886" lon="14.790150719722">
        <ele>173</ele>
        <time>2019-12-15T13:44:35Z</time>
      </trkpt>
      <trkpt lat="56.868770723461" lon="14.79007880302">
        <ele>174.6</ele>
        <time>2019-12-15T13:44:38Z</time>
      </trkpt>
      <trkpt lat="56.868709787048" lon="14.790046029791">
        <ele>175.8</ele>
        <time>2019-12-15T13:44:40Z</time>
      </trkpt>
      <trkpt lat="56.868673241964" lon="14.789995906029">
        <ele>177.2</ele>
        <time>2019-12-15T13:44:42Z</time>
      </trkpt>
      <trkpt lat="56.8685260558" lon="14.789718213682">
        <ele>178</ele>
        <time>2019-12-15T13:44:49Z</time>
      </trkpt>
      <trkpt lat="56.868488253431" lon="14.789705724651">
        <ele>178.2</ele>
        <time>2019-12-15T13:44:50Z</time>
      </trkpt>
      <trkpt lat="56.868397309816" lon="14.789696504561">
        <ele>178.4</ele>
        <time>2019-12-15T13:44:52Z</time>
      </trkpt>
      <trkpt lat="56.867994140426" lon="14.789781077932">
        <ele>178</ele>
        <time>2019-12-15T13:45:01Z</time>
      </trkpt>
      <trkpt lat="56.867893725264" lon="14.789811504229">
        <ele>177.6</ele>
        <time>2019-12-15T13:45:03Z</time>
      </trkpt>
      <trkpt lat="56.867773277361" lon="14.789845702381">
        <ele>177.2</ele>
        <time>2019-12-15T13:45:05Z</time>
      </trkpt>
      <trkpt lat="56.867641346255" lon="14.789847630218">
        <ele>176.4</ele>
        <time>2019-12-15T13:45:07Z</time>
      </trkpt>
      <trkpt lat="56.867587115362" lon="14.789770852014">
        <ele>175.8</ele>
        <time>2019-12-15T13:45:08Z</time>
      </trkpt>
      <trkpt lat="56.867527184777" lon="14.789669347205">
        <ele>175.2</ele>
        <time>2019-12-15T13:45:09Z</time>
      </trkpt>
      <trkpt lat="56.867479072671" lon="14.7895440378">
        <ele>174.6</ele>
        <time>2019-12-15T13:45:10Z</time>
      </trkpt>
      <trkpt lat="56.867392739101" lon="14.789277241923">
        <ele>173.6</ele>
        <time>2019-12-15T13:45:12Z</time>
      </trkpt>
      <trkpt lat="56.867253767199" lon="14.789021091059">
        <ele>172.4</ele>
        <time>2019-12-15T13:45:14Z</time>
      </trkpt>
      <trkpt lat="56.86719165732" lon="14.788909276513">
        <ele>172.2</ele>
        <time>2019-12-15T13:45:15Z</time>
      </trkpt>
      <trkpt lat="56.867129882717" lon="14.788790672628">
        <ele>171.8</ele>
        <time>2019-12-15T13:45:17Z</time>
      </trkpt>
      <trkpt lat="56.867026366252" lon="14.788625800655">
        <ele>171.4</ele>
        <time>2019-12-15T13:45:21Z</time>
      </trkpt>
      <trkpt lat="56.866913294421" lon="14.788286585162">
        <ele>170.2</ele>
        <time>2019-12-15T13:45:27Z</time>
      </trkpt>
      <trkpt lat="56.866885131237" lon="14.788234114468">
        <ele>170.2</ele>
        <time>2019-12-15T13:45:28Z</time>
      </trkpt>
      <trkpt lat="56.866813885087" lon="14.788143589948">
        <ele>170</ele>
        <time>2019-12-15T13:45:31Z</time>
      </trkpt>
      <trkpt lat="56.866643900155" lon="14.7879850044">
        <ele>170.2</ele>
        <time>2019-12-15T13:45:37Z</time>
      </trkpt>
      <trkpt lat="56.86656804396" lon="14.787608070357">
        <ele>170</ele>
        <time>2019-12-15T13:45:42Z</time>
      </trkpt>
      <trkpt lat="56.866579191887" lon="14.787270698882">
        <ele>169.2</ele>
        <time>2019-12-15T13:45:47Z</time>
      </trkpt>
      <trkpt lat="56.8665730731" lon="14.787169613168">
        <ele>169</ele>
        <time>2019-12-15T13:45:48Z</time>
      </trkpt>
      <trkpt lat="56.866555554929" lon="14.786843054344">
        <ele>168.4</ele>
        <time>2019-12-15T13:45:51Z</time>
      </trkpt>
      <trkpt lat="56.866543233536" lon="14.786741381897">
        <ele>168</ele>
        <time>2019-12-15T13:45:52Z</time>
      </trkpt>
      <trkpt lat="56.866534683998" lon="14.786658652544">
        <ele>168</ele>
        <time>2019-12-15T13:45:53Z</time>
      </trkpt>
      <trkpt lat="56.866461174735" lon="14.78633544648">
        <ele>167.8</ele>
        <time>2019-12-15T13:45:56Z</time>
      </trkpt>
      <trkpt lat="56.866444662392" lon="14.78611164975">
        <ele>167.6</ele>
        <time>2019-12-15T13:45:58Z</time>
      </trkpt>
      <trkpt lat="56.866448601885" lon="14.785776960483">
        <ele>167.6</ele>
        <time>2019-12-15T13:46:01Z</time>
      </trkpt>
      <trkpt lat="56.866422115081" lon="14.785554840133">
        <ele>167.6</ele>
        <time>2019-12-15T13:46:03Z</time>
      </trkpt>
      <trkpt lat="56.866384145074" lon="14.785359709501">
        <ele>167.6</ele>
        <time>2019-12-15T13:46:05Z</time>
      </trkpt>
      <trkpt lat="56.866314240028" lon="14.785235825019">
        <ele>167.6</ele>
        <time>2019-12-15T13:46:07Z</time>
      </trkpt>
      <trkpt lat="56.865957254907" lon="14.784920246484">
        <ele>167.2</ele>
        <time>2019-12-15T13:46:17Z</time>
      </trkpt>
      <trkpt lat="56.865928924085" lon="14.784622689034">
        <ele>167.2</ele>
        <time>2019-12-15T13:46:20Z</time>
      </trkpt>
      <trkpt lat="56.865908975163" lon="14.784427558402">
        <ele>167.2</ele>
        <time>2019-12-15T13:46:22Z</time>
      </trkpt>
      <trkpt lat="56.865768578338" lon="14.784020952433">
        <ele>167.2</ele>
        <time>2019-12-15T13:46:26Z</time>
      </trkpt>
      <trkpt lat="56.865688028279" lon="14.783817188444">
        <ele>167.4</ele>
        <time>2019-12-15T13:46:28Z</time>
      </trkpt>
      <trkpt lat="56.865538495183" lon="14.783325757647">
        <ele>168.2</ele>
        <time>2019-12-15T13:46:35Z</time>
      </trkpt>
      <trkpt lat="56.865451993975" lon="14.783141439666">
        <ele>168.6</ele>
        <time>2019-12-15T13:46:37Z</time>
      </trkpt>
      <trkpt lat="56.865362223826" lon="14.782963324291">
        <ele>169.2</ele>
        <time>2019-12-15T13:46:39Z</time>
      </trkpt>
      <trkpt lat="56.865102804021" lon="14.78228195964">
        <ele>169.8</ele>
        <time>2019-12-15T13:46:46Z</time>
      </trkpt>
      <trkpt lat="56.86500062866" lon="14.781968644218">
        <ele>169.4</ele>
        <time>2019-12-15T13:46:49Z</time>
      </trkpt>
      <trkpt lat="56.864825279312" lon="14.781447792952">
        <ele>169.2</ele>
        <time>2019-12-15T13:46:54Z</time>
      </trkpt>
      <trkpt lat="56.864724780331" lon="14.78109089165">
        <ele>169.2</ele>
        <time>2019-12-15T13:46:58Z</time>
      </trkpt>
      <trkpt lat="56.864572062113" lon="14.780484293547">
        <ele>169</ele>
        <time>2019-12-15T13:47:04Z</time>
      </trkpt>
      <trkpt lat="56.864457900635" lon="14.780161087483">
        <ele>168.8</ele>
        <time>2019-12-15T13:47:07Z</time>
      </trkpt>
      <trkpt lat="56.864376344748" lon="14.7800641089">
        <ele>168.6</ele>
        <time>2019-12-15T13:47:09Z</time>
      </trkpt>
      <trkpt lat="56.864284562943" lon="14.780191094685">
        <ele>168.2</ele>
        <time>2019-12-15T13:47:12Z</time>
      </trkpt>
      <trkpt lat="56.864239635959" lon="14.780201236784">
        <ele>168.2</ele>
        <time>2019-12-15T13:47:14Z</time>
      </trkpt>
      <trkpt lat="56.864224883815" lon="14.78016804446">
        <ele>168.2</ele>
        <time>2019-12-15T13:47:15Z</time>
      </trkpt>
      <trkpt lat="56.864120361522" lon="14.780001831383">
        <ele>168.2</ele>
        <time>2019-12-15T13:47:17Z</time>
      </trkpt>
      <trkpt lat="56.863804112435" lon="14.779650713592">
        <ele>170.2</ele>
        <time>2019-12-15T13:47:25Z</time>
      </trkpt>
      <trkpt lat="56.863686933473" lon="14.779510484405">
        <ele>171.4</ele>
        <time>2019-12-15T13:47:28Z</time>
      </trkpt>
      <trkpt lat="56.863631445295" lon="14.779449296535">
        <ele>171.6</ele>
        <time>2019-12-15T13:47:29Z</time>
      </trkpt>
      <trkpt lat="56.863320309167" lon="14.779207730177">
        <ele>171</ele>
        <time>2019-12-15T13:47:34Z</time>
      </trkpt>
      <trkpt lat="56.863129034209" lon="14.778878572964">
        <ele>170.8</ele>
        <time>2019-12-15T13:47:39Z</time>
      </trkpt>
      <trkpt lat="56.86301495655" lon="14.77859643821">
        <ele>171.6</ele>
        <time>2019-12-15T13:47:42Z</time>
      </trkpt>
      <trkpt lat="56.862931472826" lon="14.778433074979">
        <ele>172.2</ele>
        <time>2019-12-15T13:47:44Z</time>
      </trkpt>
      <trkpt lat="56.862846899455" lon="14.77827205868">
        <ele>172.4</ele>
        <time>2019-12-15T13:47:46Z</time>
      </trkpt>
      <trkpt lat="56.862499050605" lon="14.777463959701">
        <ele>171.4</ele>
        <time>2019-12-15T13:47:55Z</time>
      </trkpt>
      <trkpt lat="56.862449848852" lon="14.777398413243">
        <ele>171.4</ele>
        <time>2019-12-15T13:47:56Z</time>
      </trkpt>
      <trkpt lat="56.862322695429" lon="14.777112758091">
        <ele>171.8</ele>
        <time>2019-12-15T13:48:01Z</time>
      </trkpt>
      <trkpt lat="56.862309116751" lon="14.777055928809">
        <ele>172</ele>
        <time>2019-12-15T13:48:02Z</time>
      </trkpt>
      <trkpt lat="56.862213227815" lon="14.77685467939">
        <ele>172.2</ele>
        <time>2019-12-15T13:48:04Z</time>
      </trkpt>
      <trkpt lat="56.862179867853" lon="14.776765076879">
        <ele>172.4</ele>
        <time>2019-12-15T13:48:05Z</time>
      </trkpt>
      <trkpt lat="56.862142149303" lon="14.776673462712">
        <ele>172.6</ele>
        <time>2019-12-15T13:48:06Z</time>
      </trkpt>
      <trkpt lat="56.86210049126" lon="14.776506662902">
        <ele>173</ele>
        <time>2019-12-15T13:48:08Z</time>
      </trkpt>
      <trkpt lat="56.8620468471" lon="14.776310274985">
        <ele>173.4</ele>
        <time>2019-12-15T13:48:10Z</time>
      </trkpt>
      <trkpt lat="56.862026981997" lon="14.776218660818">
        <ele>173.6</ele>
        <time>2019-12-15T13:48:11Z</time>
      </trkpt>
      <trkpt lat="56.861942324807" lon="14.775870811968">
        <ele>174.4</ele>
        <time>2019-12-15T13:48:15Z</time>
      </trkpt>
      <trkpt lat="56.861871413933" lon="14.775716585008">
        <ele>174.6</ele>
        <time>2019-12-15T13:48:18Z</time>
      </trkpt>
      <trkpt lat="56.861745769252" lon="14.775497230685">
        <ele>174.2</ele>
        <time>2019-12-15T13:48:21Z</time>
      </trkpt>
      <trkpt lat="56.861665135374" lon="14.775297992922">
        <ele>173.4</ele>
        <time>2019-12-15T13:48:23Z</time>
      </trkpt>
      <trkpt lat="56.861541167073" lon="14.774978055799">
        <ele>172.4</ele>
        <time>2019-12-15T13:48:26Z</time>
      </trkpt>
      <trkpt lat="56.861414768021" lon="14.774736489441">
        <ele>172.2</ele>
        <time>2019-12-15T13:48:28Z</time>
      </trkpt>
      <trkpt lat="56.861264145278" lon="14.774308593446">
        <ele>171.4</ele>
        <time>2019-12-15T13:48:32Z</time>
      </trkpt>
      <trkpt lat="56.861208740919" lon="14.774178590177">
        <ele>171.2</ele>
        <time>2019-12-15T13:48:34Z</time>
      </trkpt>
      <trkpt lat="56.861121904435" lon="14.774084880535">
        <ele>171</ele>
        <time>2019-12-15T13:48:36Z</time>
      </trkpt>
      <trkpt lat="56.861008916423" lon="14.773984549192">
        <ele>171</ele>
        <time>2019-12-15T13:48:39Z</time>
      </trkpt>
      <trkpt lat="56.860779252363" lon="14.774041127017">
        <ele>170.6</ele>
        <time>2019-12-15T13:48:43Z</time>
      </trkpt>
      <trkpt lat="56.860660061745" lon="14.774030733461">
        <ele>170.8</ele>
        <time>2019-12-15T13:48:45Z</time>
      </trkpt>
      <trkpt lat="56.860573057623" lon="14.77395118923">
        <ele>171.2</ele>
        <time>2019-12-15T13:48:47Z</time>
      </trkpt>
      <trkpt lat="56.860466439855" lon="14.773767877077">
        <ele>171.4</ele>
        <time>2019-12-15T13:48:50Z</time>
      </trkpt>
      <trkpt lat="56.860346578685" lon="14.77341055668">
        <ele>172</ele>
        <time>2019-12-15T13:48:54Z</time>
      </trkpt>
      <trkpt lat="56.860268124101" lon="14.773173684186">
        <ele>172.4</ele>
        <time>2019-12-15T13:48:57Z</time>
      </trkpt>
      <trkpt lat="56.860242391668" lon="14.773073101386">
        <ele>172.6</ele>
        <time>2019-12-15T13:48:58Z</time>
      </trkpt>
      <trkpt lat="56.860212133009" lon="14.772981990133">
        <ele>172.8</ele>
        <time>2019-12-15T13:48:59Z</time>
      </trkpt>
      <trkpt lat="56.860156561012" lon="14.77279867798">
        <ele>173</ele>
        <time>2019-12-15T13:49:01Z</time>
      </trkpt>
      <trkpt lat="56.860139629574" lon="14.772606061918">
        <ele>173.2</ele>
        <time>2019-12-15T13:49:03Z</time>
      </trkpt>
      <trkpt lat="56.860085566319" lon="14.772266008235">
        <ele>173</ele>
        <time>2019-12-15T13:49:06Z</time>
      </trkpt>
      <trkpt lat="56.86006285137" lon="14.772050844862">
        <ele>172.6</ele>
        <time>2019-12-15T13:49:08Z</time>
      </trkpt>
      <trkpt lat="56.860035274919" lon="14.771693189189">
        <ele>172</ele>
        <time>2019-12-15T13:49:11Z</time>
      </trkpt>
      <trkpt lat="56.860108532725" lon="14.771368390564">
        <ele>171.2</ele>
        <time>2019-12-15T13:49:14Z</time>
      </trkpt>
      <trkpt lat="56.860207355326" lon="14.771015512574">
        <ele>170.4</ele>
        <time>2019-12-15T13:49:17Z</time>
      </trkpt>
      <trkpt lat="56.860138539927" lon="14.770871846808">
        <ele>170.2</ele>
        <time>2019-12-15T13:49:19Z</time>
      </trkpt>
      <trkpt lat="56.860086153052" lon="14.770805126884">
        <ele>170</ele>
        <time>2019-12-15T13:49:20Z</time>
      </trkpt>
      <trkpt lat="56.859863110693" lon="14.770512263298">
        <ele>169.2</ele>
        <time>2019-12-15T13:49:24Z</time>
      </trkpt>
      <trkpt lat="56.859819943908" lon="14.770431713239">
        <ele>168.8</ele>
        <time>2019-12-15T13:49:25Z</time>
      </trkpt>
      <trkpt lat="56.859792702733" lon="14.770348397153">
        <ele>168.4</ele>
        <time>2019-12-15T13:49:26Z</time>
      </trkpt>
      <trkpt lat="56.859749200672" lon="14.770094174126">
        <ele>167.8</ele>
        <time>2019-12-15T13:49:28Z</time>
      </trkpt>
      <trkpt lat="56.859706704439" lon="14.769815895046">
        <ele>167.6</ele>
        <time>2019-12-15T13:49:30Z</time>
      </trkpt>
      <trkpt lat="56.859568822184" lon="14.769081724425">
        <ele>167.2</ele>
        <time>2019-12-15T13:49:36Z</time>
      </trkpt>
      <trkpt lat="56.859569408917" lon="14.768873518029">
        <ele>167.2</ele>
        <time>2019-12-15T13:49:38Z</time>
      </trkpt>
      <trkpt lat="56.859581143577" lon="14.76866640128">
        <ele>167.2</ele>
        <time>2019-12-15T13:49:40Z</time>
      </trkpt>
      <trkpt lat="56.859517441137" lon="14.768413435538">
        <ele>167.4</ele>
        <time>2019-12-15T13:49:42Z</time>
      </trkpt>
      <trkpt lat="56.859203036068" lon="14.767481535896">
        <ele>167.6</ele>
        <time>2019-12-15T13:49:51Z</time>
      </trkpt>
      <trkpt lat="56.858809086768" lon="14.76668743469">
        <ele>168.2</ele>
        <time>2019-12-15T13:50:01Z</time>
      </trkpt>
      <trkpt lat="56.858729793994" lon="14.766535303205">
        <ele>168.2</ele>
        <time>2019-12-15T13:50:03Z</time>
      </trkpt>
      <trkpt lat="56.85856165308" lon="14.766284181481">
        <ele>168.2</ele>
        <time>2019-12-15T13:50:07Z</time>
      </trkpt>
      <trkpt lat="56.858480935383" lon="14.766271021898">
        <ele>168.4</ele>
        <time>2019-12-15T13:50:09Z</time>
      </trkpt>
      <trkpt lat="56.858338862178" lon="14.766459530829">
        <ele>168.4</ele>
        <time>2019-12-15T13:50:14Z</time>
      </trkpt>
      <trkpt lat="56.858136187836" lon="14.766642842982">
        <ele>168.8</ele>
        <time>2019-12-15T13:50:19Z</time>
      </trkpt>
      <trkpt lat="56.858038790158" lon="14.766630270132">
        <ele>168.6</ele>
        <time>2019-12-15T13:50:21Z</time>
      </trkpt>
      <trkpt lat="56.857888418872" lon="14.766533710644">
        <ele>168.4</ele>
        <time>2019-12-15T13:50:24Z</time>
      </trkpt>
      <trkpt lat="56.85779387104" lon="14.76646950529">
        <ele>168.2</ele>
        <time>2019-12-15T13:50:26Z</time>
      </trkpt>
      <trkpt lat="56.85742255287" lon="14.766427344333">
        <ele>168.4</ele>
        <time>2019-12-15T13:50:33Z</time>
      </trkpt>
      <trkpt lat="56.857105381774" lon="14.766447209436">
        <ele>168.4</ele>
        <time>2019-12-15T13:50:38Z</time>
      </trkpt>
      <trkpt lat="56.856955261945" lon="14.766528597685">
        <ele>168.2</ele>
        <time>2019-12-15T13:50:41Z</time>
      </trkpt>
      <trkpt lat="56.856829030531" lon="14.766689362527">
        <ele>168</ele>
        <time>2019-12-15T13:50:44Z</time>
      </trkpt>
      <trkpt lat="56.856702715298" lon="14.766889689937">
        <ele>168</ele>
        <time>2019-12-15T13:50:47Z</time>
      </trkpt>
      <trkpt lat="56.856618477203" lon="14.766983148122">
        <ele>168</ele>
        <time>2019-12-15T13:50:49Z</time>
      </trkpt>
      <trkpt lat="56.856533568556" lon="14.767082138361">
        <ele>168.4</ele>
        <time>2019-12-15T13:50:51Z</time>
      </trkpt>
      <trkpt lat="56.856109360597" lon="14.767272658948">
        <ele>169.6</ele>
        <time>2019-12-15T13:51:00Z</time>
      </trkpt>
      <trkpt lat="56.856007604331" lon="14.76725824208">
        <ele>169.8</ele>
        <time>2019-12-15T13:51:02Z</time>
      </trkpt>
      <trkpt lat="56.855901321839" lon="14.767226474679">
        <ele>170</ele>
        <time>2019-12-15T13:51:04Z</time>
      </trkpt>
      <trkpt lat="56.855750699096" lon="14.76720711249">
        <ele>169.8</ele>
        <time>2019-12-15T13:51:07Z</time>
      </trkpt>
      <trkpt lat="56.855427325394" lon="14.767168304293">
        <ele>169.8</ele>
        <time>2019-12-15T13:51:13Z</time>
      </trkpt>
      <trkpt lat="56.855264381258" lon="14.767096052315">
        <ele>169.8</ele>
        <time>2019-12-15T13:51:16Z</time>
      </trkpt>
      <trkpt lat="56.85470597908" lon="14.767020112301">
        <ele>170.4</ele>
        <time>2019-12-15T13:51:26Z</time>
      </trkpt>
      <trkpt lat="56.854639342975" lon="14.766976191145">
        <ele>170.4</ele>
        <time>2019-12-15T13:51:27Z</time>
      </trkpt>
      <trkpt lat="56.854520068538" lon="14.766891869231">
        <ele>170.4</ele>
        <time>2019-12-15T13:51:29Z</time>
      </trkpt>
      <trkpt lat="56.854287219356" lon="14.766757339736">
        <ele>170.2</ele>
        <time>2019-12-15T13:51:33Z</time>
      </trkpt>
      <trkpt lat="56.854176913552" lon="14.766676789677">
        <ele>170</ele>
        <time>2019-12-15T13:51:35Z</time>
      </trkpt>
      <trkpt lat="56.853684896022" lon="14.766191812943">
        <ele>169</ele>
        <time>2019-12-15T13:51:43Z</time>
      </trkpt>
      <trkpt lat="56.853631838595" lon="14.766147891787">
        <ele>169</ele>
        <time>2019-12-15T13:51:44Z</time>
      </trkpt>
      <trkpt lat="56.853215090527" lon="14.765984780013">
        <ele>168.8</ele>
        <time>2019-12-15T13:51:51Z</time>
      </trkpt>
      <trkpt lat="56.853160608177" lon="14.765947396739">
        <ele>168.8</ele>
        <time>2019-12-15T13:51:52Z</time>
      </trkpt>
      <trkpt lat="56.853102940705" lon="14.765899955185">
        <ele>168.6</ele>
        <time>2019-12-15T13:51:53Z</time>
      </trkpt>
      <trkpt lat="56.852982157526" lon="14.765760228912">
        <ele>168.6</ele>
        <time>2019-12-15T13:51:55Z</time>
      </trkpt>
      <trkpt lat="56.8529105761" lon="14.765578341682">
        <ele>168.8</ele>
        <time>2019-12-15T13:51:57Z</time>
      </trkpt>
      <trkpt lat="56.852877383776" lon="14.765378014272">
        <ele>169</ele>
        <time>2019-12-15T13:51:59Z</time>
      </trkpt>
      <trkpt lat="56.852900601639" lon="14.764790023987">
        <ele>170</ele>
        <time>2019-12-15T13:52:05Z</time>
      </trkpt>
      <trkpt lat="56.852883418744" lon="14.764362044173">
        <ele>171.2</ele>
        <time>2019-12-15T13:52:10Z</time>
      </trkpt>
      <trkpt lat="56.852817201734" lon="14.763956863127">
        <ele>172.2</ele>
        <time>2019-12-15T13:52:15Z</time>
      </trkpt>
      <trkpt lat="56.852779986098" lon="14.763670872699">
        <ele>172.2</ele>
        <time>2019-12-15T13:52:18Z</time>
      </trkpt>
      <trkpt lat="56.852767497067" lon="14.763354204517">
        <ele>172.2</ele>
        <time>2019-12-15T13:52:21Z</time>
      </trkpt>
      <trkpt lat="56.852762719384" lon="14.762797897814">
        <ele>171</ele>
        <time>2019-12-15T13:52:26Z</time>
      </trkpt>
      <trkpt lat="56.85278317122" lon="14.762298420393">
        <ele>170</ele>
        <time>2019-12-15T13:52:31Z</time>
      </trkpt>
      <trkpt lat="56.852781411021" lon="14.762203034371">
        <ele>170</ele>
        <time>2019-12-15T13:52:32Z</time>
      </trkpt>
      <trkpt lat="56.852777052433" lon="14.762113180403">
        <ele>169.8</ele>
        <time>2019-12-15T13:52:33Z</time>
      </trkpt>
      <trkpt lat="56.852707398844" lon="14.76141857235">
        <ele>171</ele>
        <time>2019-12-15T13:52:41Z</time>
      </trkpt>
      <trkpt lat="56.852777471528" lon="14.760533778986">
        <ele>171</ele>
        <time>2019-12-15T13:52:51Z</time>
      </trkpt>
      <trkpt lat="56.852865984392" lon="14.760358513457">
        <ele>171.4</ele>
        <time>2019-12-15T13:52:54Z</time>
      </trkpt>
      <trkpt lat="56.852983666268" lon="14.760169082517">
        <ele>171</ele>
        <time>2019-12-15T13:52:57Z</time>
      </trkpt>
      <trkpt lat="56.853119955962" lon="14.759876721845">
        <ele>170.4</ele>
        <time>2019-12-15T13:53:01Z</time>
      </trkpt>
      <trkpt lat="56.853169409172" lon="14.759724841817">
        <ele>170</ele>
        <time>2019-12-15T13:53:03Z</time>
      </trkpt>
      <trkpt lat="56.853175695597" lon="14.759556197989">
        <ele>170.2</ele>
        <time>2019-12-15T13:53:05Z</time>
      </trkpt>
      <trkpt lat="56.853153064467" lon="14.759338352408">
        <ele>170</ele>
        <time>2019-12-15T13:53:08Z</time>
      </trkpt>
      <trkpt lat="56.853102018696" lon="14.759003579322">
        <ele>170</ele>
        <time>2019-12-15T13:53:13Z</time>
      </trkpt>
      <trkpt lat="56.853093720615" lon="14.758853459493">
        <ele>170.4</ele>
        <time>2019-12-15T13:53:15Z</time>
      </trkpt>
      <trkpt lat="56.853086763638" lon="14.75845305613">
        <ele>170.4</ele>
        <time>2019-12-15T13:53:21Z</time>
      </trkpt>
      <trkpt lat="56.853058348997" lon="14.758340068118">
        <ele>170.6</ele>
        <time>2019-12-15T13:53:23Z</time>
      </trkpt>
      <trkpt lat="56.853087937104" lon="14.758272258547">
        <ele>171</ele>
        <time>2019-12-15T13:53:25Z</time>
      </trkpt>
      <trkpt lat="56.853297568423" lon="14.758113253904">
        <ele>171.2</ele>
        <time>2019-12-15T13:53:28Z</time>
      </trkpt>
      <trkpt lat="56.853508624665" lon="14.757988447413">
        <ele>171</ele>
        <time>2019-12-15T13:53:31Z</time>
      </trkpt>
      <trkpt lat="56.853631000405" lon="14.757956596193">
        <ele>171.2</ele>
        <time>2019-12-15T13:53:33Z</time>
      </trkpt>
      <trkpt lat="56.853783467166" lon="14.75793840747">
        <ele>171.2</ele>
        <time>2019-12-15T13:53:36Z</time>
      </trkpt>
      <trkpt lat="56.853984381309" lon="14.757635317966">
        <ele>171</ele>
        <time>2019-12-15T13:53:43Z</time>
      </trkpt>
      <trkpt lat="56.853987398793" lon="14.757324768571">
        <ele>171.6</ele>
        <time>2019-12-15T13:53:48Z</time>
      </trkpt>
      <trkpt lat="56.854104661574" lon="14.757223515219">
        <ele>172</ele>
        <time>2019-12-15T13:53:51Z</time>
      </trkpt>
      <trkpt lat="56.854215973206" lon="14.757182695366">
        <ele>172.2</ele>
        <time>2019-12-15T13:53:53Z</time>
      </trkpt>
      <trkpt lat="56.854316388368" lon="14.757207757247">
        <ele>172.2</ele>
        <time>2019-12-15T13:53:55Z</time>
      </trkpt>
      <trkpt lat="56.854483355816" lon="14.75728042832">
        <ele>171.6</ele>
        <time>2019-12-15T13:53:59Z</time>
      </trkpt>
      <trkpt lat="56.854345725018" lon="14.757505649973">
        <ele>171.4</ele>
        <time>2019-12-15T13:54:06Z</time>
      </trkpt>
      <trkpt lat="56.854302139138" lon="14.757708156677">
        <ele>171</ele>
        <time>2019-12-15T13:54:10Z</time>
      </trkpt>
      <trkpt lat="56.854128047075" lon="14.757817289015">
        <ele>170.8</ele>
        <time>2019-12-15T13:54:18Z</time>
      </trkpt>
      <trkpt lat="56.85417037567" lon="14.75822003931">
        <ele>170.8</ele>
        <time>2019-12-15T13:54:28Z</time>
      </trkpt>
      <trkpt lat="56.85425084191" lon="14.758159102897">
        <ele>170.6</ele>
        <time>2019-12-15T13:54:31Z</time>
      </trkpt>
      <trkpt lat="56.854265594054" lon="14.758055670251">
        <ele>170.6</ele>
        <time>2019-12-15T13:54:33Z</time>
      </trkpt>
      <trkpt lat="56.854331475788" lon="14.757643532228">
        <ele>170.8</ele>
        <time>2019-12-15T13:54:39Z</time>
      </trkpt>
      <trkpt lat="56.854480086875" lon="14.757381933129">
        <ele>170.8</ele>
        <time>2019-12-15T13:54:43Z</time>
      </trkpt>
      <trkpt lat="56.85460204352" lon="14.757074401218">
        <ele>171</ele>
        <time>2019-12-15T13:54:48Z</time>
      </trkpt>
      <trkpt lat="56.854750151693" lon="14.756873487075">
        <ele>171</ele>
        <time>2019-12-15T13:54:54Z</time>
      </trkpt>
      <trkpt lat="56.854877137478" lon="14.756710291482">
        <ele>171.4</ele>
        <time>2019-12-15T13:54:58Z</time>
      </trkpt>
      <trkpt lat="56.854905384481" lon="14.756466881106">
        <ele>171.8</ele>
        <time>2019-12-15T13:55:02Z</time>
      </trkpt>
      <trkpt lat="56.85484176586" lon="14.756252053009">
        <ele>171.8</ele>
        <time>2019-12-15T13:55:08Z</time>
      </trkpt>
      <trkpt lat="56.854735902463" lon="14.756666957059">
        <ele>171.8</ele>
        <time>2019-12-15T13:55:17Z</time>
      </trkpt>
      <trkpt lat="56.854648730703" lon="14.756677099158">
        <ele>172.2</ele>
        <time>2019-12-15T13:55:20Z</time>
      </trkpt>
      <trkpt lat="56.854242962924" lon="14.756742813254">
        <ele>172.2</ele>
        <time>2019-12-15T13:55:33Z</time>
      </trkpt>
      <trkpt lat="56.854082533358" lon="14.757385034432">
        <ele>171.8</ele>
        <time>2019-12-15T13:55:44Z</time>
      </trkpt>
      <trkpt lat="56.854023608601" lon="14.757409174304">
        <ele>172</ele>
        <time>2019-12-15T13:55:46Z</time>
      </trkpt>
      <trkpt lat="56.853962420731" lon="14.757433146538">
        <ele>172.2</ele>
        <time>2019-12-15T13:55:48Z</time>
      </trkpt>
      <trkpt lat="56.853886480717" lon="14.757405653906">
        <ele>172.2</ele>
        <time>2019-12-15T13:55:50Z</time>
      </trkpt>
      <trkpt lat="56.853749352833" lon="14.757202392831">
        <ele>172.2</ele>
        <time>2019-12-15T13:55:53Z</time>
      </trkpt>
      <trkpt lat="56.853701240727" lon="14.756775335026">
        <ele>173</ele>
        <time>2019-12-15T13:56:00Z</time>
      </trkpt>
      <trkpt lat="56.853599484461" lon="14.756767707497">
        <ele>173.2</ele>
        <time>2019-12-15T13:56:03Z</time>
      </trkpt>
      <trkpt lat="56.853454729048" lon="14.756918246421">
        <ele>173.2</ele>
        <time>2019-12-15T13:56:08Z</time>
      </trkpt>
      <trkpt lat="56.853397732128" lon="14.757288474944">
        <ele>173.2</ele>
        <time>2019-12-15T13:56:12Z</time>
      </trkpt>
      <trkpt lat="56.853327407987" lon="14.757994985295">
        <ele>172.6</ele>
        <time>2019-12-15T13:56:25Z</time>
      </trkpt>
      <trkpt lat="56.853202685315" lon="14.757959110763">
        <ele>172.4</ele>
        <time>2019-12-15T13:56:30Z</time>
      </trkpt>
      <trkpt lat="56.853160691996" lon="14.757850900434">
        <ele>172.2</ele>
        <time>2019-12-15T13:56:32Z</time>
      </trkpt>
      <trkpt lat="56.853078633195" lon="14.757490897829">
        <ele>172.8</ele>
        <time>2019-12-15T13:56:41Z</time>
      </trkpt>
      <trkpt lat="56.852671189036" lon="14.758148876979">
        <ele>173.6</ele>
        <time>2019-12-15T13:56:57Z</time>
      </trkpt>
      <trkpt lat="56.852560296499" lon="14.758309809459">
        <ele>173.8</ele>
        <time>2019-12-15T13:57:01Z</time>
      </trkpt>
      <trkpt lat="56.85220062917" lon="14.758423048928">
        <ele>173.8</ele>
        <time>2019-12-15T13:57:09Z</time>
      </trkpt>
      <trkpt lat="56.852021172691" lon="14.758490104128">
        <ele>174</ele>
        <time>2019-12-15T13:57:13Z</time>
      </trkpt>
      <trkpt lat="56.85193240837" lon="14.758587501806">
        <ele>174</ele>
        <time>2019-12-15T13:57:15Z</time>
      </trkpt>
      <trkpt lat="56.851762591076" lon="14.759095780222">
        <ele>173.8</ele>
        <time>2019-12-15T13:57:23Z</time>
      </trkpt>
      <trkpt lat="56.851830903561" lon="14.759239194531">
        <ele>173.6</ele>
        <time>2019-12-15T13:57:26Z</time>
      </trkpt>
      <trkpt lat="56.851816319055" lon="14.759401971029">
        <ele>173.4</ele>
        <time>2019-12-15T13:57:28Z</time>
      </trkpt>
      <trkpt lat="56.851772733175" lon="14.759620319524">
        <ele>173.2</ele>
        <time>2019-12-15T13:57:31Z</time>
      </trkpt>
      <trkpt lat="56.851864850256" lon="14.759865154823">
        <ele>173</ele>
        <time>2019-12-15T13:57:35Z</time>
      </trkpt>
      <trkpt lat="56.852074230118" lon="14.760237227364">
        <ele>173.2</ele>
        <time>2019-12-15T13:57:44Z</time>
      </trkpt>
      <trkpt lat="56.85185948584" lon="14.759932880575">
        <ele>173.2</ele>
        <time>2019-12-15T13:57:52Z</time>
      </trkpt>
      <trkpt lat="56.851809278259" lon="14.759776055226">
        <ele>173.2</ele>
        <time>2019-12-15T13:57:54Z</time>
      </trkpt>
      <trkpt lat="56.851829646276" lon="14.759640016989">
        <ele>173.4</ele>
        <time>2019-12-15T13:57:56Z</time>
      </trkpt>
      <trkpt lat="56.851913549095" lon="14.7591680322">
        <ele>173.4</ele>
        <time>2019-12-15T13:58:03Z</time>
      </trkpt>
      <trkpt lat="56.852052520997" lon="14.75878162661">
        <ele>173.6</ele>
        <time>2019-12-15T13:58:09Z</time>
      </trkpt>
      <trkpt lat="56.852207502328" lon="14.75879000851">
        <ele>173.8</ele>
        <time>2019-12-15T13:58:12Z</time>
      </trkpt>
      <trkpt lat="56.852316131752" lon="14.758955299578">
        <ele>173</ele>
        <time>2019-12-15T13:58:15Z</time>
      </trkpt>
      <trkpt lat="56.85234563604" lon="14.759115393868">
        <ele>172.8</ele>
        <time>2019-12-15T13:58:17Z</time>
      </trkpt>
      <trkpt lat="56.852339349615" lon="14.75940859273">
        <ele>172.2</ele>
        <time>2019-12-15T13:58:20Z</time>
      </trkpt>
      <trkpt lat="56.852337505597" lon="14.759576398368">
        <ele>172</ele>
        <time>2019-12-15T13:58:22Z</time>
      </trkpt>
      <trkpt lat="56.852409925213" lon="14.759662396662">
        <ele>171.2</ele>
        <time>2019-12-15T13:58:25Z</time>
      </trkpt>
      <trkpt lat="56.85245460074" lon="14.759800698012">
        <ele>171</ele>
        <time>2019-12-15T13:58:27Z</time>
      </trkpt>
      <trkpt lat="56.852509334547" lon="14.759925001589">
        <ele>171.2</ele>
        <time>2019-12-15T13:58:29Z</time>
      </trkpt>
      <trkpt lat="56.852598853239" lon="14.760049221347">
        <ele>172</ele>
        <time>2019-12-15T13:58:33Z</time>
      </trkpt>
      <trkpt lat="56.852543951794" lon="14.759427954919">
        <ele>172.4</ele>
        <time>2019-12-15T13:58:42Z</time>
      </trkpt>
      <trkpt lat="56.85248477558" lon="14.759100054991">
        <ele>172</ele>
        <time>2019-12-15T13:58:46Z</time>
      </trkpt>
      <trkpt lat="56.852345971316" lon="14.758721444568">
        <ele>172</ele>
        <time>2019-12-15T13:58:53Z</time>
      </trkpt>
      <trkpt lat="56.852390143929" lon="14.75867014734">
        <ele>172.2</ele>
        <time>2019-12-15T13:58:55Z</time>
      </trkpt>
      <trkpt lat="56.852725000834" lon="14.758732341038">
        <ele>172</ele>
        <time>2019-12-15T13:59:02Z</time>
      </trkpt>
      <trkpt lat="56.85289716506" lon="14.759266184249">
        <ele>172</ele>
        <time>2019-12-15T13:59:09Z</time>
      </trkpt>
      <trkpt lat="56.852960364586" lon="14.759395433147">
        <ele>171.8</ele>
        <time>2019-12-15T13:59:11Z</time>
      </trkpt>
      <trkpt lat="56.852978301852" lon="14.75953013028">
        <ele>171.8</ele>
        <time>2019-12-15T13:59:13Z</time>
      </trkpt>
      <trkpt lat="56.852965729002" lon="14.759784353307">
        <ele>171.6</ele>
        <time>2019-12-15T13:59:16Z</time>
      </trkpt>
      <trkpt lat="56.852969752314" lon="14.759924666313">
        <ele>171.6</ele>
        <time>2019-12-15T13:59:18Z</time>
      </trkpt>
      <trkpt lat="56.852926166434" lon="14.760127592112">
        <ele>171.4</ele>
        <time>2019-12-15T13:59:21Z</time>
      </trkpt>
      <trkpt lat="56.852925998796" lon="14.760271760792">
        <ele>171.2</ele>
        <time>2019-12-15T13:59:23Z</time>
      </trkpt>
      <trkpt lat="56.85294829465" lon="14.760337391069">
        <ele>171.2</ele>
        <time>2019-12-15T13:59:25Z</time>
      </trkpt>
      <trkpt lat="56.852999508059" lon="14.760271425516">
        <ele>171.4</ele>
        <time>2019-12-15T13:59:28Z</time>
      </trkpt>
      <trkpt lat="56.853006213579" lon="14.759904046839">
        <ele>171.6</ele>
        <time>2019-12-15T13:59:33Z</time>
      </trkpt>
      <trkpt lat="56.85302037899" lon="14.759576398368">
        <ele>171.6</ele>
        <time>2019-12-15T13:59:37Z</time>
      </trkpt>
      <trkpt lat="56.853058516635" lon="14.759157051911">
        <ele>171</ele>
        <time>2019-12-15T13:59:42Z</time>
      </trkpt>
      <trkpt lat="56.853065222155" lon="14.758902493608">
        <ele>171.2</ele>
        <time>2019-12-15T13:59:45Z</time>
      </trkpt>
      <trkpt lat="56.85303127546" lon="14.758569648359">
        <ele>171</ele>
        <time>2019-12-15T13:59:49Z</time>
      </trkpt>
      <trkpt lat="56.853027503605" lon="14.75841114663">
        <ele>170.8</ele>
        <time>2019-12-15T13:59:51Z</time>
      </trkpt>
      <trkpt lat="56.852991796711" lon="14.758138064328">
        <ele>171.2</ele>
        <time>2019-12-15T13:59:54Z</time>
      </trkpt>
      <trkpt lat="56.853024653759" lon="14.757312363359">
        <ele>171.6</ele>
        <time>2019-12-15T14:00:03Z</time>
      </trkpt>
      <trkpt lat="56.853062959042" lon="14.756797798518">
        <ele>171.8</ele>
        <time>2019-12-15T14:00:08Z</time>
      </trkpt>
      <trkpt lat="56.853062539947" lon="14.756392868929">
        <ele>171</ele>
        <time>2019-12-15T14:00:12Z</time>
      </trkpt>
      <trkpt lat="56.852991126159" lon="14.756022724225">
        <ele>171</ele>
        <time>2019-12-15T14:00:16Z</time>
      </trkpt>
      <trkpt lat="56.852924070959" lon="14.755869083998">
        <ele>171.4</ele>
        <time>2019-12-15T14:00:18Z</time>
      </trkpt>
      <trkpt lat="56.852771688017" lon="14.755562222639">
        <ele>172</ele>
        <time>2019-12-15T14:00:22Z</time>
      </trkpt>
      <trkpt lat="56.852706644473" lon="14.755389723137">
        <ele>172.4</ele>
        <time>2019-12-15T14:00:24Z</time>
      </trkpt>
      <trkpt lat="56.852591141891" lon="14.755038353889">
        <ele>172.6</ele>
        <time>2019-12-15T14:00:28Z</time>
      </trkpt>
      <trkpt lat="56.852544035613" lon="14.75431239753">
        <ele>173.2</ele>
        <time>2019-12-15T14:00:37Z</time>
      </trkpt>
      <trkpt lat="56.852508831633" lon="14.754221370096">
        <ele>173</ele>
        <time>2019-12-15T14:00:39Z</time>
      </trkpt>
      <trkpt lat="56.852054448834" lon="14.753649724516">
        <ele>172.8</ele>
        <time>2019-12-15T14:00:51Z</time>
      </trkpt>
      <trkpt lat="56.851983621779" lon="14.753515781754">
        <ele>172.4</ele>
        <time>2019-12-15T14:00:53Z</time>
      </trkpt>
      <trkpt lat="56.851834088683" lon="14.753086041741">
        <ele>171.4</ele>
        <time>2019-12-15T14:00:59Z</time>
      </trkpt>
      <trkpt lat="56.851411473285" lon="14.752814216724">
        <ele>173</ele>
        <time>2019-12-15T14:01:10Z</time>
      </trkpt>
      <trkpt lat="56.85136495374" lon="14.752798961666">
        <ele>173.6</ele>
        <time>2019-12-15T14:01:11Z</time>
      </trkpt>
      <trkpt lat="56.850991623914" lon="14.752907423452">
        <ele>174.4</ele>
        <time>2019-12-15T14:01:20Z</time>
      </trkpt>
      <trkpt lat="56.850953486269" lon="14.752952266617">
        <ele>174.6</ele>
        <time>2019-12-15T14:01:21Z</time>
      </trkpt>
      <trkpt lat="56.850852149098" lon="14.753100458609">
        <ele>175.2</ele>
        <time>2019-12-15T14:01:24Z</time>
      </trkpt>
      <trkpt lat="56.850780148577" lon="14.753293326128">
        <ele>175.8</ele>
        <time>2019-12-15T14:01:27Z</time>
      </trkpt>
      <trkpt lat="56.850687444763" lon="14.753543944938">
        <ele>174.6</ele>
        <time>2019-12-15T14:01:31Z</time>
      </trkpt>
      <trkpt lat="56.850204144409" lon="14.753920878981">
        <ele>174</ele>
        <time>2019-12-15T14:01:44Z</time>
      </trkpt>
      <trkpt lat="56.850025777577" lon="14.753990113475">
        <ele>173.6</ele>
        <time>2019-12-15T14:01:48Z</time>
      </trkpt>
      <trkpt lat="56.849815643344" lon="14.75412380478">
        <ele>174.6</ele>
        <time>2019-12-15T14:01:54Z</time>
      </trkpt>
      <trkpt lat="56.849507105605" lon="14.754492692199">
        <ele>176</ele>
        <time>2019-12-15T14:02:04Z</time>
      </trkpt>
      <trkpt lat="56.849292361327" lon="14.754735599661">
        <ele>177</ele>
        <time>2019-12-15T14:02:12Z</time>
      </trkpt>
      <trkpt lat="56.849096308686" lon="14.7549687003">
        <ele>178</ele>
        <time>2019-12-15T14:02:18Z</time>
      </trkpt>
      <trkpt lat="56.848692384925" lon="14.75521764273">
        <ele>178.2</ele>
        <time>2019-12-15T14:02:29Z</time>
      </trkpt>
      <trkpt lat="56.848289969906" lon="14.754702658794">
        <ele>177.8</ele>
        <time>2019-12-15T14:02:38Z</time>
      </trkpt>
      <trkpt lat="56.848104562278" lon="14.754308541856">
        <ele>177</ele>
        <time>2019-12-15T14:02:43Z</time>
      </trkpt>
      <trkpt lat="56.847895852968" lon="14.753833204307">
        <ele>175.8</ele>
        <time>2019-12-15T14:02:49Z</time>
      </trkpt>
      <trkpt lat="56.847835419469" lon="14.753616364554">
        <ele>175.4</ele>
        <time>2019-12-15T14:02:52Z</time>
      </trkpt>
      <trkpt lat="56.847661075949" lon="14.752953356264">
        <ele>177</ele>
        <time>2019-12-15T14:03:01Z</time>
      </trkpt>
      <trkpt lat="56.847509531197" lon="14.752482377303">
        <ele>178</ele>
        <time>2019-12-15T14:03:08Z</time>
      </trkpt>
      <trkpt lat="56.847222534941" lon="14.751938894907">
        <ele>177</ele>
        <time>2019-12-15T14:03:18Z</time>
      </trkpt>
      <trkpt lat="56.8470935375" lon="14.751752397632">
        <ele>178.2</ele>
        <time>2019-12-15T14:03:23Z</time>
      </trkpt>
      <trkpt lat="56.847021117884" lon="14.751684085147">
        <ele>179.4</ele>
        <time>2019-12-15T14:03:26Z</time>
      </trkpt>
      <trkpt lat="56.846751723618" lon="14.751337493582">
        <ele>180.4</ele>
        <time>2019-12-15T14:03:35Z</time>
      </trkpt>
      <trkpt lat="56.846576961003" lon="14.750391512348">
        <ele>181.4</ele>
        <time>2019-12-15T14:03:49Z</time>
      </trkpt>
      <trkpt lat="56.846564220515" lon="14.750323535139">
        <ele>181.4</ele>
        <time>2019-12-15T14:03:50Z</time>
      </trkpt>
      <trkpt lat="56.846368670788" lon="14.749333800387">
        <ele>181.2</ele>
        <time>2019-12-15T14:04:03Z</time>
      </trkpt>
      <trkpt lat="56.846256688604" lon="14.748676156513">
        <ele>181</ele>
        <time>2019-12-15T14:04:09Z</time>
      </trkpt>
      <trkpt lat="56.846265657237" lon="14.748470297049">
        <ele>180.6</ele>
        <time>2019-12-15T14:04:11Z</time>
      </trkpt>
      <trkpt lat="56.846279403553" lon="14.748273406218">
        <ele>180.4</ele>
        <time>2019-12-15T14:04:13Z</time>
      </trkpt>
      <trkpt lat="56.846301196493" lon="14.747223321786">
        <ele>180.2</ele>
        <time>2019-12-15T14:04:22Z</time>
      </trkpt>
      <trkpt lat="56.846273955318" lon="14.747006482033">
        <ele>180</ele>
        <time>2019-12-15T14:04:24Z</time>
      </trkpt>
      <trkpt lat="56.846154177967" lon="14.746496024323">
        <ele>180</ele>
        <time>2019-12-15T14:04:30Z</time>
      </trkpt>
      <trkpt lat="56.846110759725" lon="14.74630097751">
        <ele>179.8</ele>
        <time>2019-12-15T14:04:32Z</time>
      </trkpt>
      <trkpt lat="56.846081339256" lon="14.746092184381">
        <ele>179.8</ele>
        <time>2019-12-15T14:04:34Z</time>
      </trkpt>
      <trkpt lat="56.846063234352" lon="14.745875009352">
        <ele>179.4</ele>
        <time>2019-12-15T14:04:36Z</time>
      </trkpt>
      <trkpt lat="56.846022246861" lon="14.745548785804">
        <ele>178.4</ele>
        <time>2019-12-15T14:04:39Z</time>
      </trkpt>
      <trkpt lat="56.846010344563" lon="14.745429762824">
        <ele>178</ele>
        <time>2019-12-15T14:04:40Z</time>
      </trkpt>
      <trkpt lat="56.845952341815" lon="14.745195907814">
        <ele>177.6</ele>
        <time>2019-12-15T14:04:42Z</time>
      </trkpt>
      <trkpt lat="56.845887633547" lon="14.744941349511">
        <ele>176.8</ele>
        <time>2019-12-15T14:04:44Z</time>
      </trkpt>
      <trkpt lat="56.845872210851" lon="14.74479558827">
        <ele>176.4</ele>
        <time>2019-12-15T14:04:45Z</time>
      </trkpt>
      <trkpt lat="56.845866343521" lon="14.744642870052">
        <ele>175.8</ele>
        <time>2019-12-15T14:04:46Z</time>
      </trkpt>
      <trkpt lat="56.845864248046" lon="14.74428513056">
        <ele>173.6</ele>
        <time>2019-12-15T14:04:48Z</time>
      </trkpt>
      <trkpt lat="56.845877156172" lon="14.744110703221">
        <ele>172.6</ele>
        <time>2019-12-15T14:04:49Z</time>
      </trkpt>
      <trkpt lat="56.8459368353" lon="14.743808535726">
        <ele>171</ele>
        <time>2019-12-15T14:04:51Z</time>
      </trkpt>
      <trkpt lat="56.846032724236" lon="14.743438642479">
        <ele>169.8</ele>
        <time>2019-12-15T14:04:54Z</time>
      </trkpt>
      <trkpt lat="56.846085697844" lon="14.743319703318">
        <ele>169.6</ele>
        <time>2019-12-15T14:04:55Z</time>
      </trkpt>
      <trkpt lat="56.846200697512" lon="14.743133960414">
        <ele>169.6</ele>
        <time>2019-12-15T14:04:57Z</time>
      </trkpt>
      <trkpt lat="56.846317457379" lon="14.743009237742">
        <ele>169.8</ele>
        <time>2019-12-15T14:04:59Z</time>
      </trkpt>
      <trkpt lat="56.846350984979" lon="14.742816956956">
        <ele>170.2</ele>
        <time>2019-12-15T14:05:01Z</time>
      </trkpt>
      <trkpt lat="56.846311003316" lon="14.742641859065">
        <ele>171</ele>
        <time>2019-12-15T14:05:03Z</time>
      </trkpt>
      <trkpt lat="56.846346374934" lon="14.742341535588">
        <ele>172.2</ele>
        <time>2019-12-15T14:05:06Z</time>
      </trkpt>
      <trkpt lat="56.846316703008" lon="14.742258219502">
        <ele>172.2</ele>
        <time>2019-12-15T14:05:07Z</time>
      </trkpt>
      <trkpt lat="56.846300274484" lon="14.74206476525">
        <ele>172.4</ele>
        <time>2019-12-15T14:05:09Z</time>
      </trkpt>
      <trkpt lat="56.8461212371" lon="14.741698811496">
        <ele>171.4</ele>
        <time>2019-12-15T14:05:13Z</time>
      </trkpt>
      <trkpt lat="56.846076226297" lon="14.741615243953">
        <ele>171.2</ele>
        <time>2019-12-15T14:05:14Z</time>
      </trkpt>
      <trkpt lat="56.845862906942" lon="14.74128692493">
        <ele>170</ele>
        <time>2019-12-15T14:05:18Z</time>
      </trkpt>
      <trkpt lat="56.845850753187" lon="14.741211068735">
        <ele>170</ele>
        <time>2019-12-15T14:05:19Z</time>
      </trkpt>
      <trkpt lat="56.845754864251" lon="14.740956091337">
        <ele>169.2</ele>
        <time>2019-12-15T14:05:22Z</time>
      </trkpt>
      <trkpt lat="56.845721839565" lon="14.740872775251">
        <ele>168.8</ele>
        <time>2019-12-15T14:05:23Z</time>
      </trkpt>
      <trkpt lat="56.845495025351" lon="14.740456613916">
        <ele>167.6</ele>
        <time>2019-12-15T14:05:28Z</time>
      </trkpt>
      <trkpt lat="56.845347000997" lon="14.740264584587">
        <ele>167.6</ele>
        <time>2019-12-15T14:05:30Z</time>
      </trkpt>
      <trkpt lat="56.845276509218" lon="14.740022263858">
        <ele>167.6</ele>
        <time>2019-12-15T14:05:32Z</time>
      </trkpt>
      <trkpt lat="56.84520174267" lon="14.739445253862">
        <ele>168.2</ele>
        <time>2019-12-15T14:05:37Z</time>
      </trkpt>
      <trkpt lat="56.845158827342" lon="14.739035965685">
        <ele>168.8</ele>
        <time>2019-12-15T14:05:41Z</time>
      </trkpt>
      <trkpt lat="56.845114319453" lon="14.738383518589">
        <ele>170</ele>
        <time>2019-12-15T14:05:48Z</time>
      </trkpt>
      <trkpt lat="56.845100154042" lon="14.738122841499">
        <ele>171.2</ele>
        <time>2019-12-15T14:05:52Z</time>
      </trkpt>
      <trkpt lat="56.845091604504" lon="14.737881526598">
        <ele>172.4</ele>
        <time>2019-12-15T14:05:55Z</time>
      </trkpt>
      <trkpt lat="56.845008456056" lon="14.736908052732">
        <ele>172.6</ele>
        <time>2019-12-15T14:06:05Z</time>
      </trkpt>
      <trkpt lat="56.845002001993" lon="14.736741839655">
        <ele>172.8</ele>
        <time>2019-12-15T14:06:08Z</time>
      </trkpt>
      <trkpt lat="56.844945675625" lon="14.736737397248">
        <ele>173.4</ele>
        <time>2019-12-15T14:06:10Z</time>
      </trkpt>
      <trkpt lat="56.84460746596" lon="14.736955578105">
        <ele>174.4</ele>
        <time>2019-12-15T14:06:18Z</time>
      </trkpt>
      <trkpt lat="56.844067755419" lon="14.737291692295">
        <ele>175.6</ele>
        <time>2019-12-15T14:06:29Z</time>
      </trkpt>
      <trkpt lat="56.843525278851" lon="14.737519344699">
        <ele>174.8</ele>
        <time>2019-12-15T14:06:39Z</time>
      </trkpt>
      <trkpt lat="56.84329318404" lon="14.737552704661">
        <ele>174.6</ele>
        <time>2019-12-15T14:06:43Z</time>
      </trkpt>
      <trkpt lat="56.84289169103" lon="14.737603331337">
        <ele>173.4</ele>
        <time>2019-12-15T14:06:50Z</time>
      </trkpt>
      <trkpt lat="56.842324990771" lon="14.737561002742">
        <ele>173.6</ele>
        <time>2019-12-15T14:07:00Z</time>
      </trkpt>
      <trkpt lat="56.841759547797" lon="14.737388670878">
        <ele>173.8</ele>
        <time>2019-12-15T14:07:11Z</time>
      </trkpt>
      <trkpt lat="56.841599704964" lon="14.737383977014">
        <ele>174.8</ele>
        <time>2019-12-15T14:07:14Z</time>
      </trkpt>
      <trkpt lat="56.841340536616" lon="14.737373751096">
        <ele>175.8</ele>
        <time>2019-12-15T14:07:19Z</time>
      </trkpt>
      <trkpt lat="56.840930074973" lon="14.737305857706">
        <ele>176.8</ele>
        <time>2019-12-15T14:07:27Z</time>
      </trkpt>
      <trkpt lat="56.840647940219" lon="14.737314323425">
        <ele>177</ele>
        <time>2019-12-15T14:07:33Z</time>
      </trkpt>
      <trkpt lat="56.840561103735" lon="14.737333098881">
        <ele>177</ele>
        <time>2019-12-15T14:07:35Z</time>
      </trkpt>
      <trkpt lat="56.840003120652" lon="14.737411888741">
        <ele>176.6</ele>
        <time>2019-12-15T14:07:46Z</time>
      </trkpt>
      <trkpt lat="56.839421919706" lon="14.737416582605">
        <ele>177.4</ele>
        <time>2019-12-15T14:07:57Z</time>
      </trkpt>
      <trkpt lat="56.839186136859" lon="14.737373834915">
        <ele>177.2</ele>
        <time>2019-12-15T14:08:02Z</time>
      </trkpt>
      <trkpt lat="56.838631841812" lon="14.737155654058">
        <ele>177</ele>
        <time>2019-12-15T14:08:15Z</time>
      </trkpt>
      <trkpt lat="56.838428916013" lon="14.737083904994">
        <ele>177.8</ele>
        <time>2019-12-15T14:08:20Z</time>
      </trkpt>
      <trkpt lat="56.83804862921" lon="14.736927163464">
        <ele>179</ele>
        <time>2019-12-15T14:08:30Z</time>
      </trkpt>
      <trkpt lat="56.837699439256" lon="14.736768410278">
        <ele>180.2</ele>
        <time>2019-12-15T14:08:40Z</time>
      </trkpt>
      <trkpt lat="56.837245140276" lon="14.736582667374">
        <ele>181.4</ele>
        <time>2019-12-15T14:08:53Z</time>
      </trkpt>
      <trkpt lat="56.836719511327" lon="14.73629298891">
        <ele>182.2</ele>
        <time>2019-12-15T14:09:07Z</time>
      </trkpt>
      <trkpt lat="56.836617252147" lon="14.736248481021">
        <ele>182.4</ele>
        <time>2019-12-15T14:09:09Z</time>
      </trkpt>
      <trkpt lat="56.836204275934" lon="14.736109006205">
        <ele>181.8</ele>
        <time>2019-12-15T14:09:17Z</time>
      </trkpt>
      <trkpt lat="56.835992130045" lon="14.736021247712">
        <ele>181.2</ele>
        <time>2019-12-15T14:09:21Z</time>
      </trkpt>
      <trkpt lat="56.835438170274" lon="14.73579175129">
        <ele>180.8</ele>
        <time>2019-12-15T14:09:32Z</time>
      </trkpt>
      <trkpt lat="56.834912457506" lon="14.73553610334">
        <ele>181.2</ele>
        <time>2019-12-15T14:09:44Z</time>
      </trkpt>
      <trkpt lat="56.834361179943" lon="14.735252459844">
        <ele>182</ele>
        <time>2019-12-15T14:09:56Z</time>
      </trkpt>
      <trkpt lat="56.833842507971" lon="14.734971582375">
        <ele>180.8</ele>
        <time>2019-12-15T14:10:06Z</time>
      </trkpt>
      <trkpt lat="56.833305731095" lon="14.734614764892">
        <ele>180.8</ele>
        <time>2019-12-15T14:10:17Z</time>
      </trkpt>
      <trkpt lat="56.832783622544" lon="14.734200782851">
        <ele>180.2</ele>
        <time>2019-12-15T14:10:28Z</time>
      </trkpt>
      <trkpt lat="56.832734336972" lon="14.734181672119">
        <ele>180.2</ele>
        <time>2019-12-15T14:10:29Z</time>
      </trkpt>
      <trkpt lat="56.832687063056" lon="14.734181755938">
        <ele>180.2</ele>
        <time>2019-12-15T14:10:30Z</time>
      </trkpt>
      <trkpt lat="56.832606848273" lon="14.734249062595">
        <ele>180.2</ele>
        <time>2019-12-15T14:10:32Z</time>
      </trkpt>
      <trkpt lat="56.832550941" lon="14.734367582661">
        <ele>180.2</ele>
        <time>2019-12-15T14:10:34Z</time>
      </trkpt>
      <trkpt lat="56.832501152514" lon="14.734537064679">
        <ele>179.8</ele>
        <time>2019-12-15T14:10:36Z</time>
      </trkpt>
      <trkpt lat="56.832456393168" lon="14.734830682636">
        <ele>179.2</ele>
        <time>2019-12-15T14:10:39Z</time>
      </trkpt>
      <trkpt lat="56.832449687648" lon="14.734940066431">
        <ele>179.2</ele>
        <time>2019-12-15T14:10:40Z</time>
      </trkpt>
      <trkpt lat="56.832414651306" lon="14.735274671879">
        <ele>178.6</ele>
        <time>2019-12-15T14:10:43Z</time>
      </trkpt>
      <trkpt lat="56.832373915272" lon="14.735682870409">
        <ele>178</ele>
        <time>2019-12-15T14:10:47Z</time>
      </trkpt>
      <trkpt lat="56.832302166208" lon="14.736240685854">
        <ele>177</ele>
        <time>2019-12-15T14:10:52Z</time>
      </trkpt>
      <trkpt lat="56.832235362465" lon="14.736526424825">
        <ele>176.6</ele>
        <time>2019-12-15T14:10:55Z</time>
      </trkpt>
      <trkpt lat="56.832166882342" lon="14.736641173036">
        <ele>176.6</ele>
        <time>2019-12-15T14:10:57Z</time>
      </trkpt>
      <trkpt lat="56.8320312632" lon="14.736684172183">
        <ele>176.8</ele>
        <time>2019-12-15T14:11:00Z</time>
      </trkpt>
      <trkpt lat="56.831794725982" lon="14.736783246241">
        <ele>178.2</ele>
        <time>2019-12-15T14:11:06Z</time>
      </trkpt>
      <trkpt lat="56.831658184831" lon="14.736894390235">
        <ele>179.4</ele>
        <time>2019-12-15T14:11:10Z</time>
      </trkpt>
      <trkpt lat="56.831582999188" lon="14.736930767681">
        <ele>180.8</ele>
        <time>2019-12-15T14:11:13Z</time>
      </trkpt>
      <trkpt lat="56.831359956829" lon="14.737045096797">
        <ele>181.8</ele>
        <time>2019-12-15T14:11:20Z</time>
      </trkpt>
      <trkpt lat="56.831003055527" lon="14.737418929537">
        <ele>182.8</ele>
        <time>2019-12-15T14:11:30Z</time>
      </trkpt>
      <trkpt lat="56.830969108832" lon="14.737628309399">
        <ele>182.8</ele>
        <time>2019-12-15T14:11:33Z</time>
      </trkpt>
      <trkpt lat="56.831000121862" lon="14.737602576966">
        <ele>182.6</ele>
        <time>2019-12-15T14:11:35Z</time>
      </trkpt>
      <trkpt lat="56.831454504661" lon="14.737271911011">
        <ele>181.8</ele>
        <time>2019-12-15T14:11:44Z</time>
      </trkpt>
      <trkpt lat="56.831653993881" lon="14.737073846714">
        <ele>180.4</ele>
        <time>2019-12-15T14:11:47Z</time>
      </trkpt>
      <trkpt lat="56.831812411791" lon="14.736981561995">
        <ele>179.2</ele>
        <time>2019-12-15T14:11:49Z</time>
      </trkpt>
      <trkpt lat="56.831969740054" lon="14.736896988624">
        <ele>178.2</ele>
        <time>2019-12-15T14:11:51Z</time>
      </trkpt>
      <trkpt lat="56.832035035055" lon="14.736840075523">
        <ele>177.8</ele>
        <time>2019-12-15T14:11:52Z</time>
      </trkpt>
      <trkpt lat="56.832094630364" lon="14.736757597627">
        <ele>177.4</ele>
        <time>2019-12-15T14:11:53Z</time>
      </trkpt>
      <trkpt lat="56.832168223446" lon="14.736510750672">
        <ele>176.8</ele>
        <time>2019-12-15T14:11:55Z</time>
      </trkpt>
      <trkpt lat="56.832194458793" lon="14.736386698552">
        <ele>176.4</ele>
        <time>2019-12-15T14:11:56Z</time>
      </trkpt>
      <trkpt lat="56.832251120437" lon="14.736020325703">
        <ele>176.2</ele>
        <time>2019-12-15T14:11:59Z</time>
      </trkpt>
      <trkpt lat="56.832297975258" lon="14.735182806255">
        <ele>177.8</ele>
        <time>2019-12-15T14:12:07Z</time>
      </trkpt>
      <trkpt lat="56.832340052396" lon="14.734805620755">
        <ele>178.6</ele>
        <time>2019-12-15T14:12:11Z</time>
      </trkpt>
      <trkpt lat="56.832382129534" lon="14.734641419334">
        <ele>178.8</ele>
        <time>2019-12-15T14:12:13Z</time>
      </trkpt>
      <trkpt lat="56.832476174452" lon="14.734345789721">
        <ele>179.6</ele>
        <time>2019-12-15T14:12:17Z</time>
      </trkpt>
      <trkpt lat="56.832492519157" lon="14.734181504481">
        <ele>179.6</ele>
        <time>2019-12-15T14:12:19Z</time>
      </trkpt>
      <trkpt lat="56.832466954362" lon="14.734034737412">
        <ele>179.8</ele>
        <time>2019-12-15T14:12:21Z</time>
      </trkpt>
      <trkpt lat="56.832441221929" lon="14.733979919786">
        <ele>180</ele>
        <time>2019-12-15T14:12:22Z</time>
      </trkpt>
      <trkpt lat="56.83241180146" lon="14.733933819336">
        <ele>180.2</ele>
        <time>2019-12-15T14:12:23Z</time>
      </trkpt>
      <trkpt lat="56.832178197907" lon="14.733713459185">
        <ele>181.2</ele>
        <time>2019-12-15T14:12:29Z</time>
      </trkpt>
      <trkpt lat="56.831920370663" lon="14.733529895575">
        <ele>182.4</ele>
        <time>2019-12-15T14:12:36Z</time>
      </trkpt>
      <trkpt lat="56.831691544793" lon="14.733382122678">
        <ele>183.6</ele>
        <time>2019-12-15T14:12:41Z</time>
      </trkpt>
      <trkpt lat="56.831471519918" lon="14.733227644261">
        <ele>184.6</ele>
        <time>2019-12-15T14:12:46Z</time>
      </trkpt>
      <trkpt lat="56.831255769812" lon="14.733057407872">
        <ele>185.2</ele>
        <time>2019-12-15T14:12:51Z</time>
      </trkpt>
      <trkpt lat="56.831165496749" lon="14.732996806735">
        <ele>185.6</ele>
        <time>2019-12-15T14:12:53Z</time>
      </trkpt>
      <trkpt lat="56.830897778863" lon="14.732791366366">
        <ele>186.8</ele>
        <time>2019-12-15T14:13:00Z</time>
      </trkpt>
      <trkpt lat="56.830583876708" lon="14.732603025073">
        <ele>187.8</ele>
        <time>2019-12-15T14:13:07Z</time>
      </trkpt>
      <trkpt lat="56.830376592321" lon="14.732458185841">
        <ele>189</ele>
        <time>2019-12-15T14:13:12Z</time>
      </trkpt>
      <trkpt lat="56.830065372374" lon="14.732259953906">
        <ele>190</ele>
        <time>2019-12-15T14:13:19Z</time>
      </trkpt>
      <trkpt lat="56.830021451218" lon="14.732233215645">
        <ele>190.2</ele>
        <time>2019-12-15T14:13:20Z</time>
      </trkpt>
      <trkpt lat="56.829668573228" lon="14.732001539929">
        <ele>191.2</ele>
        <time>2019-12-15T14:13:28Z</time>
      </trkpt>
      <trkpt lat="56.829404711016" lon="14.731830213893">
        <ele>192.2</ele>
        <time>2019-12-15T14:13:34Z</time>
      </trkpt>
      <trkpt lat="56.829080247667" lon="14.731658133486">
        <ele>193.4</ele>
        <time>2019-12-15T14:13:41Z</time>
      </trkpt>
      <trkpt lat="56.828552523243" lon="14.731241972151">
        <ele>194.2</ele>
        <time>2019-12-15T14:13:53Z</time>
      </trkpt>
      <trkpt lat="56.828453365366" lon="14.731178856444">
        <ele>194.4</ele>
        <time>2019-12-15T14:13:55Z</time>
      </trkpt>
      <trkpt lat="56.827902087803" lon="14.73096126232">
        <ele>194.4</ele>
        <time>2019-12-15T14:14:06Z</time>
      </trkpt>
      <trkpt lat="56.827796559682" lon="14.730912312024">
        <ele>194.6</ele>
        <time>2019-12-15T14:14:08Z</time>
      </trkpt>
      <trkpt lat="56.827202366791" lon="14.730878616786">
        <ele>193.8</ele>
        <time>2019-12-15T14:14:19Z</time>
      </trkpt>
      <trkpt lat="56.826815625925" lon="14.730863110271">
        <ele>193.4</ele>
        <time>2019-12-15T14:14:26Z</time>
      </trkpt>
      <trkpt lat="56.826262755801" lon="14.730906444694">
        <ele>192.8</ele>
        <time>2019-12-15T14:14:36Z</time>
      </trkpt>
      <trkpt lat="56.825708209297" lon="14.730986491839">
        <ele>192.6</ele>
        <time>2019-12-15T14:14:47Z</time>
      </trkpt>
      <trkpt lat="56.825389026545" lon="14.731017337231">
        <ele>192.2</ele>
        <time>2019-12-15T14:14:53Z</time>
      </trkpt>
      <trkpt lat="56.824841688475" lon="14.731154548934">
        <ele>191.4</ele>
        <time>2019-12-15T14:15:03Z</time>
      </trkpt>
      <trkpt lat="56.82478762522" lon="14.731162344101">
        <ele>191.2</ele>
        <time>2019-12-15T14:15:04Z</time>
      </trkpt>
      <trkpt lat="56.824364171632" lon="14.731228309654">
        <ele>190.2</ele>
        <time>2019-12-15T14:15:12Z</time>
      </trkpt>
      <trkpt lat="56.824193683786" lon="14.731261501978">
        <ele>189.6</ele>
        <time>2019-12-15T14:15:15Z</time>
      </trkpt>
      <trkpt lat="56.82401229947" lon="14.731299555804">
        <ele>189.2</ele>
        <time>2019-12-15T14:15:18Z</time>
      </trkpt>
      <trkpt lat="56.823563700182" lon="14.731418997879">
        <ele>188.2</ele>
        <time>2019-12-15T14:15:26Z</time>
      </trkpt>
      <trkpt lat="56.82302574984" lon="14.731752178404">
        <ele>188</ele>
        <time>2019-12-15T14:15:37Z</time>
      </trkpt>
      <trkpt lat="56.822489559697" lon="14.732117796882">
        <ele>188.6</ele>
        <time>2019-12-15T14:15:49Z</time>
      </trkpt>
      <trkpt lat="56.821938952686" lon="14.732510405078">
        <ele>189</ele>
        <time>2019-12-15T14:16:01Z</time>
      </trkpt>
      <trkpt lat="56.821402846362" lon="14.732884740732">
        <ele>188.6</ele>
        <time>2019-12-15T14:16:12Z</time>
      </trkpt>
      <trkpt lat="56.820864141649" lon="14.733158661224">
        <ele>188</ele>
        <time>2019-12-15T14:16:23Z</time>
      </trkpt>
      <trkpt lat="56.820326275126" lon="14.733418332486">
        <ele>187.2</ele>
        <time>2019-12-15T14:16:33Z</time>
      </trkpt>
      <trkpt lat="56.820224937955" lon="14.73347331775">
        <ele>187</ele>
        <time>2019-12-15T14:16:35Z</time>
      </trkpt>
      <trkpt lat="56.819874574535" lon="14.733700886335">
        <ele>186.4</ele>
        <time>2019-12-15T14:16:42Z</time>
      </trkpt>
      <trkpt lat="56.819801652005" lon="14.733852514906">
        <ele>186.2</ele>
        <time>2019-12-15T14:16:44Z</time>
      </trkpt>
      <trkpt lat="56.819752114976" lon="14.73405083066">
        <ele>186</ele>
        <time>2019-12-15T14:16:46Z</time>
      </trkpt>
      <trkpt lat="56.819735686452" lon="14.734167925803">
        <ele>185.8</ele>
        <time>2019-12-15T14:16:47Z</time>
      </trkpt>
      <trkpt lat="56.819708696734" lon="14.734751725138">
        <ele>184.6</ele>
        <time>2019-12-15T14:16:52Z</time>
      </trkpt>
      <trkpt lat="56.819752785528" lon="14.735808598909">
        <ele>183.6</ele>
        <time>2019-12-15T14:17:01Z</time>
      </trkpt>
      <trkpt lat="56.819766783301" lon="14.736013284907">
        <ele>183.6</ele>
        <time>2019-12-15T14:17:03Z</time>
      </trkpt>
      <trkpt lat="56.819784720567" lon="14.736792298693">
        <ele>184.8</ele>
        <time>2019-12-15T14:17:12Z</time>
      </trkpt>
      <trkpt lat="56.819761586523" lon="14.737249447519">
        <ele>185.8</ele>
        <time>2019-12-15T14:17:17Z</time>
      </trkpt>
      <trkpt lat="56.819747253474" lon="14.737566786253">
        <ele>186.8</ele>
        <time>2019-12-15T14:17:21Z</time>
      </trkpt>
      <trkpt lat="56.819737279013" lon="14.737798126693">
        <ele>187.8</ele>
        <time>2019-12-15T14:17:24Z</time>
      </trkpt>
      <trkpt lat="56.819716910996" lon="14.738087302243">
        <ele>189</ele>
        <time>2019-12-15T14:17:28Z</time>
      </trkpt>
      <trkpt lat="56.819691597658" lon="14.738227447611">
        <ele>189.6</ele>
        <time>2019-12-15T14:17:30Z</time>
      </trkpt>
      <trkpt lat="56.819639713697" lon="14.738340351804">
        <ele>190.4</ele>
        <time>2019-12-15T14:17:32Z</time>
      </trkpt>
      <trkpt lat="56.819566204434" lon="14.738401707312">
        <ele>190.6</ele>
        <time>2019-12-15T14:17:34Z</time>
      </trkpt>
      <trkpt lat="56.819046526634" lon="14.738523831595">
        <ele>191.6</ele>
        <time>2019-12-15T14:17:45Z</time>
      </trkpt>
      <trkpt lat="56.818500613487" lon="14.738498937352">
        <ele>191</ele>
        <time>2019-12-15T14:17:55Z</time>
      </trkpt>
      <trkpt lat="56.818395085366" lon="14.738517964265">
        <ele>190.8</ele>
        <time>2019-12-15T14:17:57Z</time>
      </trkpt>
      <trkpt lat="56.818193081576" lon="14.738630617001">
        <ele>190.8</ele>
        <time>2019-12-15T14:18:01Z</time>
      </trkpt>
      <trkpt lat="56.817756719862" lon="14.739199999468">
        <ele>191.8</ele>
        <time>2019-12-15T14:18:14Z</time>
      </trkpt>
      <trkpt lat="56.817613389372" lon="14.739500322945">
        <ele>192.6</ele>
        <time>2019-12-15T14:18:20Z</time>
      </trkpt>
      <trkpt lat="56.817360339811" lon="14.739910114036">
        <ele>193.6</ele>
        <time>2019-12-15T14:18:28Z</time>
      </trkpt>
      <trkpt lat="56.817248441446" lon="14.740108597428">
        <ele>193.6</ele>
        <time>2019-12-15T14:18:31Z</time>
      </trkpt>
      <trkpt lat="56.817209884706" lon="14.740296351988">
        <ele>193.6</ele>
        <time>2019-12-15T14:18:33Z</time>
      </trkpt>
      <trkpt lat="56.817133860873" lon="14.740579660208">
        <ele>193</ele>
        <time>2019-12-15T14:18:36Z</time>
      </trkpt>
      <trkpt lat="56.817187588852" lon="14.740730618227">
        <ele>192.8</ele>
        <time>2019-12-15T14:18:38Z</time>
      </trkpt>
      <trkpt lat="56.817420102758" lon="14.741034378283">
        <ele>193.8</ele>
        <time>2019-12-15T14:18:44Z</time>
      </trkpt>
      <trkpt lat="56.817767616332" lon="14.741540980319">
        <ele>192.2</ele>
        <time>2019-12-15T14:18:50Z</time>
      </trkpt>
      <trkpt lat="56.817828301288" lon="14.741632426848">
        <ele>191.2</ele>
        <time>2019-12-15T14:18:51Z</time>
      </trkpt>
      <trkpt lat="56.817855207187" lon="14.74174373848">
        <ele>190.2</ele>
        <time>2019-12-15T14:18:52Z</time>
      </trkpt>
      <trkpt lat="56.817909354261" lon="14.741811967146">
        <ele>189.2</ele>
        <time>2019-12-15T14:18:53Z</time>
      </trkpt>
      <trkpt lat="56.817978756393" lon="14.741859157243">
        <ele>188</ele>
        <time>2019-12-15T14:18:54Z</time>
      </trkpt>
      <trkpt lat="56.818051595104" lon="14.741804004341">
        <ele>187.2</ele>
        <time>2019-12-15T14:18:55Z</time>
      </trkpt>
      <trkpt lat="56.818126026376" lon="14.741819007942">
        <ele>186.4</ele>
        <time>2019-12-15T14:18:56Z</time>
      </trkpt>
      <trkpt lat="56.818414279917" lon="14.741893858309">
        <ele>185.2</ele>
        <time>2019-12-15T14:18:59Z</time>
      </trkpt>
      <trkpt lat="56.818764727156" lon="14.741964936821">
        <ele>186.4</ele>
        <time>2019-12-15T14:19:04Z</time>
      </trkpt>
      <trkpt lat="56.819158173542" lon="14.741969714504">
        <ele>187.4</ele>
        <time>2019-12-15T14:19:11Z</time>
      </trkpt>
      <trkpt lat="56.819209386951" lon="14.741984550467">
        <ele>187.8</ele>
        <time>2019-12-15T14:19:12Z</time>
      </trkpt>
      <trkpt lat="56.819369648879" lon="14.742080858498">
        <ele>189</ele>
        <time>2019-12-15T14:19:15Z</time>
      </trkpt>
      <trkpt lat="56.819471069869" lon="14.742206838455">
        <ele>189</ele>
        <time>2019-12-15T14:19:17Z</time>
      </trkpt>
      <trkpt lat="56.819816236511" lon="14.742820644992">
        <ele>188.2</ele>
        <time>2019-12-15T14:19:25Z</time>
      </trkpt>
      <trkpt lat="56.819927967238" lon="14.742896165911">
        <ele>188.2</ele>
        <time>2019-12-15T14:19:27Z</time>
      </trkpt>
      <trkpt lat="56.820041458164" lon="14.742902284698">
        <ele>188.2</ele>
        <time>2019-12-15T14:19:29Z</time>
      </trkpt>
      <trkpt lat="56.820387798272" lon="14.74287026584">
        <ele>188.6</ele>
        <time>2019-12-15T14:19:35Z</time>
      </trkpt>
      <trkpt lat="56.82069809621" lon="14.742984678775">
        <ele>187.6</ele>
        <time>2019-12-15T14:19:40Z</time>
      </trkpt>
      <trkpt lat="56.820840672329" lon="14.743031282139">
        <ele>186.6</ele>
        <time>2019-12-15T14:19:42Z</time>
      </trkpt>
      <trkpt lat="56.820910661194" lon="14.743041843333">
        <ele>186.2</ele>
        <time>2019-12-15T14:19:43Z</time>
      </trkpt>
      <trkpt lat="56.821048124354" lon="14.7430328747">
        <ele>185.4</ele>
        <time>2019-12-15T14:19:45Z</time>
      </trkpt>
      <trkpt lat="56.821313998222" lon="14.742996581073">
        <ele>184.2</ele>
        <time>2019-12-15T14:19:49Z</time>
      </trkpt>
      <trkpt lat="56.82161591426" lon="14.742992054847">
        <ele>185.4</ele>
        <time>2019-12-15T14:19:55Z</time>
      </trkpt>
      <trkpt lat="56.821654722457" lon="14.742976464513">
        <ele>185.8</ele>
        <time>2019-12-15T14:19:56Z</time>
      </trkpt>
      <trkpt lat="56.82173996638" lon="14.742908487304">
        <ele>186.4</ele>
        <time>2019-12-15T14:19:58Z</time>
      </trkpt>
      <trkpt lat="56.821822779552" lon="14.742807569228">
        <ele>186.4</ele>
        <time>2019-12-15T14:20:00Z</time>
      </trkpt>
      <trkpt lat="56.821936857211" lon="14.742624424713">
        <ele>186.6</ele>
        <time>2019-12-15T14:20:03Z</time>
      </trkpt>
      <trkpt lat="56.822026543541" lon="14.742580838833">
        <ele>186.4</ele>
        <time>2019-12-15T14:20:05Z</time>
      </trkpt>
      <trkpt lat="56.822117738613" lon="14.742573462761">
        <ele>186.6</ele>
        <time>2019-12-15T14:20:07Z</time>
      </trkpt>
      <trkpt lat="56.822205078011" lon="14.742567260155">
        <ele>187</ele>
        <time>2019-12-15T14:20:09Z</time>
      </trkpt>
      <trkpt lat="56.822383025748" lon="14.74262132341">
        <ele>187.6</ele>
        <time>2019-12-15T14:20:13Z</time>
      </trkpt>
      <trkpt lat="56.822531804473" lon="14.74275962476">
        <ele>187.8</ele>
        <time>2019-12-15T14:20:17Z</time>
      </trkpt>
      <trkpt lat="56.822883173721" lon="14.743260778561">
        <ele>187</ele>
        <time>2019-12-15T14:20:25Z</time>
      </trkpt>
      <trkpt lat="56.822963472323" lon="14.7433262412">
        <ele>186.8</ele>
        <time>2019-12-15T14:20:27Z</time>
      </trkpt>
      <trkpt lat="56.823141503879" lon="14.743411401304">
        <ele>186.6</ele>
        <time>2019-12-15T14:20:31Z</time>
      </trkpt>
      <trkpt lat="56.823179473886" lon="14.743435122081">
        <ele>186.4</ele>
        <time>2019-12-15T14:20:32Z</time>
      </trkpt>
      <trkpt lat="56.823340490185" lon="14.743548026274">
        <ele>185.4</ele>
        <time>2019-12-15T14:20:35Z</time>
      </trkpt>
      <trkpt lat="56.823788921835" lon="14.74412922722">
        <ele>185.2</ele>
        <time>2019-12-15T14:20:49Z</time>
      </trkpt>
      <trkpt lat="56.824271048723" lon="14.743873998365">
        <ele>186.4</ele>
        <time>2019-12-15T14:20:59Z</time>
      </trkpt>
      <trkpt lat="56.824749152299" lon="14.743364378845">
        <ele>187.8</ele>
        <time>2019-12-15T14:21:14Z</time>
      </trkpt>
      <trkpt lat="56.825246198969" lon="14.742937823954">
        <ele>188.6</ele>
        <time>2019-12-15T14:21:27Z</time>
      </trkpt>
      <trkpt lat="56.825290287763" lon="14.742920221964">
        <ele>188.8</ele>
        <time>2019-12-15T14:21:28Z</time>
      </trkpt>
      <trkpt lat="56.825379806455" lon="14.742873199505">
        <ele>188.6</ele>
        <time>2019-12-15T14:21:30Z</time>
      </trkpt>
      <trkpt lat="56.825624557935" lon="14.742732551223">
        <ele>188.6</ele>
        <time>2019-12-15T14:21:36Z</time>
      </trkpt>
      <trkpt lat="56.825708209297" lon="14.74271603888">
        <ele>188.4</ele>
        <time>2019-12-15T14:21:38Z</time>
      </trkpt>
      <trkpt lat="56.826218331731" lon="14.742368273849">
        <ele>189.2</ele>
        <time>2019-12-15T14:21:53Z</time>
      </trkpt>
      <trkpt lat="56.826632649048" lon="14.742143974205">
        <ele>187.8</ele>
        <time>2019-12-15T14:22:08Z</time>
      </trkpt>
      <trkpt lat="56.826646982097" lon="14.742105585103">
        <ele>187.4</ele>
        <time>2019-12-15T14:22:09Z</time>
      </trkpt>
      <trkpt lat="56.826675396738" lon="14.741925960986">
        <ele>186.6</ele>
        <time>2019-12-15T14:22:14Z</time>
      </trkpt>
      <trkpt lat="56.826694675108" lon="14.741869131704">
        <ele>186.6</ele>
        <time>2019-12-15T14:22:16Z</time>
      </trkpt>
      <trkpt lat="56.827129779537" lon="14.74124333905">
        <ele>186.8</ele>
        <time>2019-12-15T14:22:34Z</time>
      </trkpt>
      <trkpt lat="56.827634286098" lon="14.741335707588">
        <ele>186.4</ele>
        <time>2019-12-15T14:22:48Z</time>
      </trkpt>
      <trkpt lat="56.82776739067" lon="14.741421286787">
        <ele>186.2</ele>
        <time>2019-12-15T14:22:51Z</time>
      </trkpt>
      <trkpt lat="56.827856741724" lon="14.741462274278">
        <ele>186</ele>
        <time>2019-12-15T14:22:53Z</time>
      </trkpt>
      <trkpt lat="56.82802052405" lon="14.741595043574">
        <ele>185.8</ele>
        <time>2019-12-15T14:22:57Z</time>
      </trkpt>
      <trkpt lat="56.828107779629" lon="14.741629996097">
        <ele>185.4</ele>
        <time>2019-12-15T14:22:59Z</time>
      </trkpt>
      <trkpt lat="56.828360996828" lon="14.741759915547">
        <ele>184.4</ele>
        <time>2019-12-15T14:23:05Z</time>
      </trkpt>
      <trkpt lat="56.828449090597" lon="14.741787911093">
        <ele>184</ele>
        <time>2019-12-15T14:23:07Z</time>
      </trkpt>
      <trkpt lat="56.828533663968" lon="14.741795287165">
        <ele>182.8</ele>
        <time>2019-12-15T14:23:09Z</time>
      </trkpt>
      <trkpt lat="56.828662326133" lon="14.741790844758">
        <ele>181.6</ele>
        <time>2019-12-15T14:23:12Z</time>
      </trkpt>
      <trkpt lat="56.828791910307" lon="14.741765615239">
        <ele>181.4</ele>
        <time>2019-12-15T14:23:15Z</time>
      </trkpt>
      <trkpt lat="56.828888385976" lon="14.741722364635">
        <ele>180.4</ele>
        <time>2019-12-15T14:23:18Z</time>
      </trkpt>
      <trkpt lat="56.828928786734" lon="14.741677772927">
        <ele>179.2</ele>
        <time>2019-12-15T14:23:21Z</time>
      </trkpt>
      <trkpt lat="56.828981592704" lon="14.741613316116">
        <ele>178.6</ele>
        <time>2019-12-15T14:23:24Z</time>
      </trkpt>
      <trkpt lat="56.829300943094" lon="14.741129931943">
        <ele>178</ele>
        <time>2019-12-15T14:23:39Z</time>
      </trkpt>
      <trkpt lat="56.829435053494" lon="14.740891885983">
        <ele>178.2</ele>
        <time>2019-12-15T14:23:47Z</time>
      </trkpt>
      <trkpt lat="56.829821291446" lon="14.740136006241">
        <ele>179</ele>
        <time>2019-12-15T14:24:01Z</time>
      </trkpt>
      <trkpt lat="56.829854651408" lon="14.740069537774">
        <ele>179.2</ele>
        <time>2019-12-15T14:24:02Z</time>
      </trkpt>
      <trkpt lat="56.829945762661" lon="14.73989888229">
        <ele>180.4</ele>
        <time>2019-12-15T14:24:05Z</time>
      </trkpt>
      <trkpt lat="56.83012019" lon="14.7395879138">
        <ele>181.4</ele>
        <time>2019-12-15T14:24:11Z</time>
      </trkpt>
      <trkpt lat="56.830247511061" lon="14.739252973076">
        <ele>182.4</ele>
        <time>2019-12-15T14:24:16Z</time>
      </trkpt>
      <trkpt lat="56.830440797675" lon="14.73904225211">
        <ele>183.6</ele>
        <time>2019-12-15T14:24:22Z</time>
      </trkpt>
      <trkpt lat="56.83052335939" lon="14.738995816384">
        <ele>184.2</ele>
        <time>2019-12-15T14:24:24Z</time>
      </trkpt>
      <trkpt lat="56.83063819142" lon="14.738859359052">
        <ele>184.4</ele>
        <time>2019-12-15T14:24:27Z</time>
      </trkpt>
      <trkpt lat="56.830686052069" lon="14.738729774878">
        <ele>184.6</ele>
        <time>2019-12-15T14:24:29Z</time>
      </trkpt>
      <trkpt lat="56.830709521389" lon="14.738655930339">
        <ele>184.6</ele>
        <time>2019-12-15T14:24:30Z</time>
      </trkpt>
      <trkpt lat="56.830811780569" lon="14.73833481975">
        <ele>184.8</ele>
        <time>2019-12-15T14:24:34Z</time>
      </trkpt>
      <trkpt lat="56.830834076423" lon="14.73814371243">
        <ele>184.8</ele>
        <time>2019-12-15T14:24:36Z</time>
      </trkpt>
      <trkpt lat="56.830857964838" lon="14.737949336169">
        <ele>184.8</ele>
        <time>2019-12-15T14:24:38Z</time>
      </trkpt>
      <trkpt lat="56.830923427477" lon="14.737784715653">
        <ele>185</ele>
        <time>2019-12-15T14:24:40Z</time>
      </trkpt>
      <trkpt lat="56.831011605065" lon="14.737654377108">
        <ele>185.2</ele>
        <time>2019-12-15T14:24:42Z</time>
      </trkpt>
      <trkpt lat="56.831514351427" lon="14.737232432262">
        <ele>184.6</ele>
        <time>2019-12-15T14:24:51Z</time>
      </trkpt>
      <trkpt lat="56.831705374928" lon="14.737037888363">
        <ele>183.4</ele>
        <time>2019-12-15T14:24:54Z</time>
      </trkpt>
      <trkpt lat="56.831911485849" lon="14.736931605871">
        <ele>182</ele>
        <time>2019-12-15T14:24:57Z</time>
      </trkpt>
      <trkpt lat="56.832092283432" lon="14.736860946454">
        <ele>180.8</ele>
        <time>2019-12-15T14:25:00Z</time>
      </trkpt>
      <trkpt lat="56.832231925886" lon="14.736595072586">
        <ele>179.8</ele>
        <time>2019-12-15T14:25:03Z</time>
      </trkpt>
      <trkpt lat="56.832309961375" lon="14.736151502438">
        <ele>179.4</ele>
        <time>2019-12-15T14:25:07Z</time>
      </trkpt>
      <trkpt lat="56.832333598333" lon="14.735703154607">
        <ele>180.2</ele>
        <time>2019-12-15T14:25:11Z</time>
      </trkpt>
      <trkpt lat="56.832346003545" lon="14.735501569912">
        <ele>180.8</ele>
        <time>2019-12-15T14:25:13Z</time>
      </trkpt>
      <trkpt lat="56.832366455381" lon="14.735159336935">
        <ele>181</ele>
        <time>2019-12-15T14:25:17Z</time>
      </trkpt>
      <trkpt lat="56.832409622166" lon="14.734870748118">
        <ele>181.6</ele>
        <time>2019-12-15T14:25:20Z</time>
      </trkpt>
      <trkpt lat="56.832436025151" lon="14.734787767308">
        <ele>182</ele>
        <time>2019-12-15T14:25:21Z</time>
      </trkpt>
      <trkpt lat="56.832538871064" lon="14.734515942291">
        <ele>182.8</ele>
        <time>2019-12-15T14:25:25Z</time>
      </trkpt>
      <trkpt lat="56.832574326501" lon="14.734453580955">
        <ele>183.2</ele>
        <time>2019-12-15T14:25:26Z</time>
      </trkpt>
      <trkpt lat="56.832616906553" lon="14.734367247385">
        <ele>183.4</ele>
        <time>2019-12-15T14:25:27Z</time>
      </trkpt>
      <trkpt lat="56.83273115185" lon="14.734332043405">
        <ele>183.8</ele>
        <time>2019-12-15T14:25:29Z</time>
      </trkpt>
      <trkpt lat="56.832835171229" lon="14.73439532675">
        <ele>184</ele>
        <time>2019-12-15T14:25:31Z</time>
      </trkpt>
      <trkpt lat="56.832998702098" lon="14.734504794364">
        <ele>184.2</ele>
        <time>2019-12-15T14:25:34Z</time>
      </trkpt>
      <trkpt lat="56.833516452061" lon="14.734860186924">
        <ele>184.2</ele>
        <time>2019-12-15T14:25:43Z</time>
      </trkpt>
      <trkpt lat="56.834051384919" lon="14.735178447667">
        <ele>184</ele>
        <time>2019-12-15T14:25:52Z</time>
      </trkpt>
      <trkpt lat="56.834398479398" lon="14.735354886662">
        <ele>185.2</ele>
        <time>2019-12-15T14:25:58Z</time>
      </trkpt>
      <trkpt lat="56.834741466746" lon="14.735518249893">
        <ele>186.4</ele>
        <time>2019-12-15T14:26:04Z</time>
      </trkpt>
      <trkpt lat="56.835310849213" lon="14.735784459037">
        <ele>185.6</ele>
        <time>2019-12-15T14:26:13Z</time>
      </trkpt>
      <trkpt lat="56.835699769373" lon="14.735958886376">
        <ele>185.2</ele>
        <time>2019-12-15T14:26:19Z</time>
      </trkpt>
      <trkpt lat="56.836265044709" lon="14.736233728877">
        <ele>185.2</ele>
        <time>2019-12-15T14:26:28Z</time>
      </trkpt>
      <trkpt lat="56.836639128906" lon="14.736395331909">
        <ele>186.4</ele>
        <time>2019-12-15T14:26:35Z</time>
      </trkpt>
      <trkpt lat="56.836742393914" lon="14.736442605825">
        <ele>186.6</ele>
        <time>2019-12-15T14:26:37Z</time>
      </trkpt>
      <trkpt lat="56.836849346958" lon="14.736700265431">
        <ele>186.6</ele>
        <time>2019-12-15T14:26:40Z</time>
      </trkpt>
      <trkpt lat="56.836826129095" lon="14.736965552566">
        <ele>186.4</ele>
        <time>2019-12-15T14:26:42Z</time>
      </trkpt>
      <trkpt lat="56.836795199884" lon="14.737371571802">
        <ele>184.8</ele>
        <time>2019-12-15T14:26:45Z</time>
      </trkpt>
      <trkpt lat="56.836787320898" lon="14.737665273578">
        <ele>183.6</ele>
        <time>2019-12-15T14:26:47Z</time>
      </trkpt>
      <trkpt lat="56.836781705025" lon="14.737977164077">
        <ele>182.6</ele>
        <time>2019-12-15T14:26:49Z</time>
      </trkpt>
      <trkpt lat="56.836783968138" lon="14.738285785635">
        <ele>181</ele>
        <time>2019-12-15T14:26:51Z</time>
      </trkpt>
      <trkpt lat="56.836778855179" lon="14.738591641166">
        <ele>179.6</ele>
        <time>2019-12-15T14:26:53Z</time>
      </trkpt>
      <trkpt lat="56.836769132175" lon="14.738868327685">
        <ele>178.2</ele>
        <time>2019-12-15T14:26:55Z</time>
      </trkpt>
      <trkpt lat="56.836714649825" lon="14.739096902098">
        <ele>177</ele>
        <time>2019-12-15T14:26:57Z</time>
      </trkpt>
      <trkpt lat="56.836627813341" lon="14.739263953365">
        <ele>176.8</ele>
        <time>2019-12-15T14:26:59Z</time>
      </trkpt>
      <trkpt lat="56.836526811446" lon="14.739382892526">
        <ele>176.6</ele>
        <time>2019-12-15T14:27:01Z</time>
      </trkpt>
      <trkpt lat="56.83645187726" lon="14.739489510294">
        <ele>176.6</ele>
        <time>2019-12-15T14:27:03Z</time>
      </trkpt>
      <trkpt lat="56.836414577805" lon="14.739617753364">
        <ele>176.8</ele>
        <time>2019-12-15T14:27:05Z</time>
      </trkpt>
      <trkpt lat="56.836408375199" lon="14.739770890677">
        <ele>176.8</ele>
        <time>2019-12-15T14:27:07Z</time>
      </trkpt>
      <trkpt lat="56.836396221444" lon="14.739990664095">
        <ele>176.8</ele>
        <time>2019-12-15T14:27:09Z</time>
      </trkpt>
      <trkpt lat="56.836410638312" lon="14.740277408894">
        <ele>176.8</ele>
        <time>2019-12-15T14:27:12Z</time>
      </trkpt>
      <trkpt lat="56.836487332697" lon="14.741265299628">
        <ele>176.4</ele>
        <time>2019-12-15T14:27:23Z</time>
      </trkpt>
      <trkpt lat="56.836485237222" lon="14.741384238789">
        <ele>176.2</ele>
        <time>2019-12-15T14:27:24Z</time>
      </trkpt>
      <trkpt lat="56.836514573872" lon="14.741494376955">
        <ele>176</ele>
        <time>2019-12-15T14:27:25Z</time>
      </trkpt>
      <trkpt lat="56.836436622202" lon="14.742496936014">
        <ele>175.2</ele>
        <time>2019-12-15T14:27:31Z</time>
      </trkpt>
      <trkpt lat="56.836425977189" lon="14.743310483228">
        <ele>175.8</ele>
        <time>2019-12-15T14:27:37Z</time>
      </trkpt>
      <trkpt lat="56.836428240302" lon="14.743903670291">
        <ele>175.2</ele>
        <time>2019-12-15T14:27:42Z</time>
      </trkpt>
      <trkpt lat="56.836446429025" lon="14.744543879813">
        <ele>175.4</ele>
        <time>2019-12-15T14:27:48Z</time>
      </trkpt>
      <trkpt lat="56.836523542505" lon="14.744933386706">
        <ele>177.4</ele>
        <time>2019-12-15T14:27:54Z</time>
      </trkpt>
      <trkpt lat="56.836537037364" lon="14.744982253183">
        <ele>177.6</ele>
        <time>2019-12-15T14:27:55Z</time>
      </trkpt>
      <trkpt lat="56.836608534971" lon="14.745149639726">
        <ele>178.6</ele>
        <time>2019-12-15T14:27:58Z</time>
      </trkpt>
      <trkpt lat="56.836689755582" lon="14.745300262469">
        <ele>180</ele>
        <time>2019-12-15T14:28:01Z</time>
      </trkpt>
      <trkpt lat="56.836808191829" lon="14.745847935815">
        <ele>181</ele>
        <time>2019-12-15T14:28:09Z</time>
      </trkpt>
      <trkpt lat="56.836887233146" lon="14.746796096343">
        <ele>182.2</ele>
        <time>2019-12-15T14:28:22Z</time>
      </trkpt>
      <trkpt lat="56.836900057453" lon="14.747008158413">
        <ele>183.4</ele>
        <time>2019-12-15T14:28:26Z</time>
      </trkpt>
      <trkpt lat="56.836847251483" lon="14.747328514631">
        <ele>184.6</ele>
        <time>2019-12-15T14:28:31Z</time>
      </trkpt>
      <trkpt lat="56.836821435231" lon="14.747550634981">
        <ele>185.8</ele>
        <time>2019-12-15T14:28:34Z</time>
      </trkpt>
      <trkpt lat="56.836768210166" lon="14.747946931213">
        <ele>186.8</ele>
        <time>2019-12-15T14:28:39Z</time>
      </trkpt>
      <trkpt lat="56.836763600121" lon="14.74826904763">
        <ele>187.8</ele>
        <time>2019-12-15T14:28:43Z</time>
      </trkpt>
      <trkpt lat="56.836759241533" lon="14.748352531354">
        <ele>188</ele>
        <time>2019-12-15T14:28:44Z</time>
      </trkpt>
      <trkpt lat="56.83679134421" lon="14.74873927222">
        <ele>189.2</ele>
        <time>2019-12-15T14:28:49Z</time>
      </trkpt>
      <trkpt lat="56.836787488536" lon="14.749220477099">
        <ele>190.2</ele>
        <time>2019-12-15T14:28:55Z</time>
      </trkpt>
      <trkpt lat="56.836791176572" lon="14.749468246063">
        <ele>190.8</ele>
        <time>2019-12-15T14:28:58Z</time>
      </trkpt>
      <trkpt lat="56.836591687352" lon="14.750381034973">
        <ele>188.8</ele>
        <time>2019-12-15T14:29:08Z</time>
      </trkpt>
      <trkpt lat="56.83644098079" lon="14.750811864633">
        <ele>187.4</ele>
        <time>2019-12-15T14:29:12Z</time>
      </trkpt>
      <trkpt lat="56.836382391309" lon="14.751036415734">
        <ele>186.2</ele>
        <time>2019-12-15T14:29:14Z</time>
      </trkpt>
      <trkpt lat="56.836335871764" lon="14.751270689839">
        <ele>185.6</ele>
        <time>2019-12-15T14:29:16Z</time>
      </trkpt>
      <trkpt lat="56.836272253143" lon="14.751643265294">
        <ele>185.2</ele>
        <time>2019-12-15T14:29:19Z</time>
      </trkpt>
      <trkpt lat="56.836218525164" lon="14.752313649656">
        <ele>184</ele>
        <time>2019-12-15T14:29:24Z</time>
      </trkpt>
      <trkpt lat="56.836142836607" lon="14.753108002319">
        <ele>183</ele>
        <time>2019-12-15T14:29:30Z</time>
      </trkpt>
      <trkpt lat="56.836060107254" lon="14.753672523284">
        <ele>181.8</ele>
        <time>2019-12-15T14:29:35Z</time>
      </trkpt>
      <trkpt lat="56.835907975769" lon="14.754346428044">
        <ele>182.8</ele>
        <time>2019-12-15T14:29:43Z</time>
      </trkpt>
      <trkpt lat="56.835894061815" lon="14.754422870972">
        <ele>183</ele>
        <time>2019-12-15T14:29:44Z</time>
      </trkpt>
      <trkpt lat="56.835844943881" lon="14.754608110962">
        <ele>184</ele>
        <time>2019-12-15T14:29:47Z</time>
      </trkpt>
      <trkpt lat="56.835768165677" lon="14.754895274856">
        <ele>185.2</ele>
        <time>2019-12-15T14:29:51Z</time>
      </trkpt>
      <trkpt lat="56.835692980034" lon="14.755477062535">
        <ele>185.4</ele>
        <time>2019-12-15T14:29:54Z</time>
      </trkpt>
      <trkpt lat="56.835670097447" lon="14.75570966026">
        <ele>185.2</ele>
        <time>2019-12-15T14:29:56Z</time>
      </trkpt>
      <trkpt lat="56.835693147672" lon="14.75583455057">
        <ele>184.8</ele>
        <time>2019-12-15T14:29:58Z</time>
      </trkpt>
      <trkpt lat="56.83578132526" lon="14.755933289352">
        <ele>184.8</ele>
        <time>2019-12-15T14:30:00Z</time>
      </trkpt>
      <trkpt lat="56.836066645136" lon="14.756200671962">
        <ele>186.2</ele>
        <time>2019-12-15T14:30:06Z</time>
      </trkpt>
      <trkpt lat="56.836608534971" lon="14.756628232681">
        <ele>187</ele>
        <time>2019-12-15T14:30:16Z</time>
      </trkpt>
      <trkpt lat="56.836769886546" lon="14.756745495462">
        <ele>187.4</ele>
        <time>2019-12-15T14:30:19Z</time>
      </trkpt>
      <trkpt lat="56.837141791449" lon="14.756953953315">
        <ele>188.4</ele>
        <time>2019-12-15T14:30:26Z</time>
      </trkpt>
      <trkpt lat="56.83724396681" lon="14.756987397096">
        <ele>188.8</ele>
        <time>2019-12-15T14:30:28Z</time>
      </trkpt>
      <trkpt lat="56.837448149894" lon="14.756984211974">
        <ele>189.6</ele>
        <time>2019-12-15T14:30:32Z</time>
      </trkpt>
      <trkpt lat="56.837756352357" lon="14.75688228807">
        <ele>190.6</ele>
        <time>2019-12-15T14:30:38Z</time>
      </trkpt>
      <trkpt lat="56.837980149087" lon="14.756794781034">
        <ele>191.8</ele>
        <time>2019-12-15T14:30:43Z</time>
      </trkpt>
      <trkpt lat="56.838026752451" lon="14.756788662247">
        <ele>192</ele>
        <time>2019-12-15T14:30:44Z</time>
      </trkpt>
      <trkpt lat="56.838213165907" lon="14.756787237324">
        <ele>192.8</ele>
        <time>2019-12-15T14:30:48Z</time>
      </trkpt>
      <trkpt lat="56.83836043589" lon="14.75682445296">
        <ele>194</ele>
        <time>2019-12-15T14:30:52Z</time>
      </trkpt>
      <trkpt lat="56.838529498813" lon="14.756857393827">
        <ele>195.2</ele>
        <time>2019-12-15T14:30:56Z</time>
      </trkpt>
      <trkpt lat="56.838631590355" lon="14.756888323038">
        <ele>196.2</ele>
        <time>2019-12-15T14:30:59Z</time>
      </trkpt>
      <trkpt lat="56.838754552828" lon="14.756928304701">
        <ele>197.4</ele>
        <time>2019-12-15T14:31:03Z</time>
      </trkpt>
      <trkpt lat="56.838915233851" lon="14.757016733746">
        <ele>197.8</ele>
        <time>2019-12-15T14:31:06Z</time>
      </trkpt>
      <trkpt lat="56.839218993907" lon="14.757117316546">
        <ele>198.4</ele>
        <time>2019-12-15T14:31:13Z</time>
      </trkpt>
      <trkpt lat="56.839311613902" lon="14.75713290688">
        <ele>198.6</ele>
        <time>2019-12-15T14:31:15Z</time>
      </trkpt>
      <trkpt lat="56.839612021198" lon="14.757225862151">
        <ele>199.2</ele>
        <time>2019-12-15T14:31:21Z</time>
      </trkpt>
      <trkpt lat="56.840040671564" lon="14.757348908443">
        <ele>198.6</ele>
        <time>2019-12-15T14:31:27Z</time>
      </trkpt>
      <trkpt lat="56.840159359268" lon="14.757330049168">
        <ele>198.4</ele>
        <time>2019-12-15T14:31:29Z</time>
      </trkpt>
      <trkpt lat="56.840534197836" lon="14.757174900199">
        <ele>198</ele>
        <time>2019-12-15T14:31:37Z</time>
      </trkpt>
      <trkpt lat="56.840643497812" lon="14.757081106738">
        <ele>198.2</ele>
        <time>2019-12-15T14:31:39Z</time>
      </trkpt>
      <trkpt lat="56.840733770875" lon="14.756954456229">
        <ele>198.4</ele>
        <time>2019-12-15T14:31:41Z</time>
      </trkpt>
      <trkpt lat="56.841022611149" lon="14.75697365078">
        <ele>199</ele>
        <time>2019-12-15T14:31:46Z</time>
      </trkpt>
      <trkpt lat="56.841158062653" lon="14.757113460872">
        <ele>199</ele>
        <time>2019-12-15T14:31:49Z</time>
      </trkpt>
      <trkpt lat="56.841495434128" lon="14.757650740662">
        <ele>198.2</ele>
        <time>2019-12-15T14:31:56Z</time>
      </trkpt>
      <trkpt lat="56.841676566987" lon="14.758193133411">
        <ele>196.8</ele>
        <time>2019-12-15T14:32:01Z</time>
      </trkpt>
      <trkpt lat="56.841780837823" lon="14.758432185199">
        <ele>195</ele>
        <time>2019-12-15T14:32:03Z</time>
      </trkpt>
      <trkpt lat="56.841828279377" lon="14.758553303654">
        <ele>193.8</ele>
        <time>2019-12-15T14:32:04Z</time>
      </trkpt>
      <trkpt lat="56.841871278524" lon="14.758674170652">
        <ele>192.6</ele>
        <time>2019-12-15T14:32:05Z</time>
      </trkpt>
      <trkpt lat="56.841966580727" lon="14.758916323743">
        <ele>191</ele>
        <time>2019-12-15T14:32:07Z</time>
      </trkpt>
      <trkpt lat="56.842103457154" lon="14.759118243714">
        <ele>190</ele>
        <time>2019-12-15T14:32:09Z</time>
      </trkpt>
      <trkpt lat="56.842173446019" lon="14.759207259492">
        <ele>189.6</ele>
        <time>2019-12-15T14:32:10Z</time>
      </trkpt>
      <trkpt lat="56.842406714296" lon="14.759429631299">
        <ele>188</ele>
        <time>2019-12-15T14:32:13Z</time>
      </trkpt>
      <trkpt lat="56.842543925999" lon="14.759553348143">
        <ele>186.4</ele>
        <time>2019-12-15T14:32:15Z</time>
      </trkpt>
      <trkpt lat="56.842740313916" lon="14.759678992824">
        <ele>185.4</ele>
        <time>2019-12-15T14:32:18Z</time>
      </trkpt>
      <trkpt lat="56.842879034361" lon="14.759727272568">
        <ele>184.4</ele>
        <time>2019-12-15T14:32:20Z</time>
      </trkpt>
      <trkpt lat="56.843414302495" lon="14.760077803626">
        <ele>184</ele>
        <time>2019-12-15T14:32:28Z</time>
      </trkpt>
      <trkpt lat="56.843730048668" lon="14.760225492704">
        <ele>184</ele>
        <time>2019-12-15T14:32:33Z</time>
      </trkpt>
      <trkpt lat="56.843894250089" lon="14.760363374959">
        <ele>183.2</ele>
        <time>2019-12-15T14:32:36Z</time>
      </trkpt>
      <trkpt lat="56.844008830662" lon="14.76039765693">
        <ele>183.2</ele>
        <time>2019-12-15T14:32:38Z</time>
      </trkpt>
      <trkpt lat="56.844155178636" lon="14.760435291661">
        <ele>183</ele>
        <time>2019-12-15T14:32:41Z</time>
      </trkpt>
      <trkpt lat="56.844340334807" lon="14.760539394859">
        <ele>183.8</ele>
        <time>2019-12-15T14:32:47Z</time>
      </trkpt>
      <trkpt lat="56.844496489604" lon="14.760580969083">
        <ele>184.4</ele>
        <time>2019-12-15T14:32:51Z</time>
      </trkpt>
      <trkpt lat="56.844769152811" lon="14.760575017934">
        <ele>185.4</ele>
        <time>2019-12-15T14:32:58Z</time>
      </trkpt>
      <trkpt lat="56.844949698937" lon="14.760594799218">
        <ele>186.4</ele>
        <time>2019-12-15T14:33:03Z</time>
      </trkpt>
      <trkpt lat="56.845490582944" lon="14.760691610163">
        <ele>185.8</ele>
        <time>2019-12-15T14:33:17Z</time>
      </trkpt>
      <trkpt lat="56.845638355841" lon="14.760736118052">
        <ele>185.6</ele>
        <time>2019-12-15T14:33:20Z</time>
      </trkpt>
      <trkpt lat="56.84581781232" lon="14.760808789125">
        <ele>185.2</ele>
        <time>2019-12-15T14:33:24Z</time>
      </trkpt>
      <trkpt lat="56.845927866667" lon="14.760823122174">
        <ele>185.2</ele>
        <time>2019-12-15T14:33:26Z</time>
      </trkpt>
      <trkpt lat="56.84620673248" lon="14.760860002534">
        <ele>184.8</ele>
        <time>2019-12-15T14:33:30Z</time>
      </trkpt>
      <trkpt lat="56.846577380098" lon="14.760879280904">
        <ele>185</ele>
        <time>2019-12-15T14:33:39Z</time>
      </trkpt>
      <trkpt lat="56.846776450223" lon="14.760949102131">
        <ele>185.4</ele>
        <time>2019-12-15T14:33:44Z</time>
      </trkpt>
      <trkpt lat="56.847090687654" lon="14.761006518146">
        <ele>186.4</ele>
        <time>2019-12-15T14:33:48Z</time>
      </trkpt>
      <trkpt lat="56.847172914093" lon="14.761016827883">
        <ele>186.6</ele>
        <time>2019-12-15T14:33:49Z</time>
      </trkpt>
      <trkpt lat="56.847652694049" lon="14.760850111892">
        <ele>187.4</ele>
        <time>2019-12-15T14:33:59Z</time>
      </trkpt>
      <trkpt lat="56.84774229656" lon="14.76079328261">
        <ele>187.6</ele>
        <time>2019-12-15T14:34:01Z</time>
      </trkpt>
      <trkpt lat="56.848089977772" lon="14.760446858683">
        <ele>187</ele>
        <time>2019-12-15T14:34:08Z</time>
      </trkpt>
      <trkpt lat="56.848172623306" lon="14.760367733547">
        <ele>185.8</ele>
        <time>2019-12-15T14:34:10Z</time>
      </trkpt>
      <trkpt lat="56.84826281255" lon="14.760291542076">
        <ele>184.8</ele>
        <time>2019-12-15T14:34:12Z</time>
      </trkpt>
      <trkpt lat="56.848403460832" lon="14.76010177586">
        <ele>183.6</ele>
        <time>2019-12-15T14:34:15Z</time>
      </trkpt>
      <trkpt lat="56.848738233918" lon="14.759656361694">
        <ele>182.4</ele>
        <time>2019-12-15T14:34:21Z</time>
      </trkpt>
      <trkpt lat="56.848786932757" lon="14.759627695596">
        <ele>182.2</ele>
        <time>2019-12-15T14:34:22Z</time>
      </trkpt>
      <trkpt lat="56.84906160762" lon="14.759530549375">
        <ele>182</ele>
        <time>2019-12-15T14:34:27Z</time>
      </trkpt>
      <trkpt lat="56.849321278882" lon="14.759475564111">
        <ele>181.6</ele>
        <time>2019-12-15T14:34:32Z</time>
      </trkpt>
      <trkpt lat="56.849637527969" lon="14.75942870929">
        <ele>182.8</ele>
        <time>2019-12-15T14:34:38Z</time>
      </trkpt>
      <trkpt lat="56.849745067746" lon="14.759399959373">
        <ele>183</ele>
        <time>2019-12-15T14:34:40Z</time>
      </trkpt>
      <trkpt lat="56.850074560235" lon="14.759311781785">
        <ele>182.8</ele>
        <time>2019-12-15T14:34:46Z</time>
      </trkpt>
      <trkpt lat="56.850208000083" lon="14.759245313318">
        <ele>182.4</ele>
        <time>2019-12-15T14:34:48Z</time>
      </trkpt>
      <trkpt lat="56.850412099348" lon="14.759185382733">
        <ele>181.4</ele>
        <time>2019-12-15T14:34:51Z</time>
      </trkpt>
      <trkpt lat="56.850483596955" lon="14.759179180127">
        <ele>181.2</ele>
        <time>2019-12-15T14:34:52Z</time>
      </trkpt>
      <trkpt lat="56.85103554507" lon="14.759317146201">
        <ele>180</ele>
        <time>2019-12-15T14:35:01Z</time>
      </trkpt>
      <trkpt lat="56.851534351939" lon="14.759571955961">
        <ele>179.6</ele>
        <time>2019-12-15T14:35:09Z</time>
      </trkpt>
      <trkpt lat="56.851657062955" lon="14.759808325541">
        <ele>179.8</ele>
        <time>2019-12-15T14:35:12Z</time>
      </trkpt>
      <trkpt lat="56.85199778719" lon="14.760674930182">
        <ele>179.8</ele>
        <time>2019-12-15T14:35:22Z</time>
      </trkpt>
      <trkpt lat="56.852321244711" lon="14.761168707911">
        <ele>178.8</ele>
        <time>2019-12-15T14:35:29Z</time>
      </trkpt>
      <trkpt lat="56.852464575201" lon="14.761367358941">
        <ele>178.2</ele>
        <time>2019-12-15T14:35:32Z</time>
      </trkpt>
      <trkpt lat="56.852673703606" lon="14.761617726294">
        <ele>177.8</ele>
        <time>2019-12-15T14:35:36Z</time>
      </trkpt>
      <trkpt lat="56.85276305466" lon="14.761751585237">
        <ele>177.8</ele>
        <time>2019-12-15T14:35:38Z</time>
      </trkpt>
      <trkpt lat="56.852927004624" lon="14.762061966994">
        <ele>177.6</ele>
        <time>2019-12-15T14:35:42Z</time>
      </trkpt>
      <trkpt lat="56.852955419265" lon="14.762264222241">
        <ele>177.2</ele>
        <time>2019-12-15T14:35:44Z</time>
      </trkpt>
      <trkpt lat="56.852924238597" lon="14.762471506628">
        <ele>177</ele>
        <time>2019-12-15T14:35:46Z</time>
      </trkpt>
      <trkpt lat="56.85289967963" lon="14.762666134346">
        <ele>176.8</ele>
        <time>2019-12-15T14:35:48Z</time>
      </trkpt>
      <trkpt lat="56.852866738763" lon="14.762965284357">
        <ele>177</ele>
        <time>2019-12-15T14:35:51Z</time>
      </trkpt>
      <trkpt lat="56.852874869206" lon="14.763594262133">
        <ele>178.2</ele>
        <time>2019-12-15T14:35:59Z</time>
      </trkpt>
      <trkpt lat="56.852917030163" lon="14.763787045833">
        <ele>178.8</ele>
        <time>2019-12-15T14:36:02Z</time>
      </trkpt>
      <trkpt lat="56.852862966908" lon="14.764543260851">
        <ele>177.6</ele>
        <time>2019-12-15T14:36:12Z</time>
      </trkpt>
      <trkpt lat="56.852901439829" lon="14.764451395227">
        <ele>176.4</ele>
        <time>2019-12-15T14:36:14Z</time>
      </trkpt>
      <trkpt lat="56.853099336488" lon="14.763837001957">
        <ele>176</ele>
        <time>2019-12-15T14:36:23Z</time>
      </trkpt>
      <trkpt lat="56.853455986333" lon="14.763796601199">
        <ele>176.2</ele>
        <time>2019-12-15T14:36:30Z</time>
      </trkpt>
      <trkpt lat="56.85400106129" lon="14.764095667391">
        <ele>177.2</ele>
        <time>2019-12-15T14:36:41Z</time>
      </trkpt>
      <trkpt lat="56.854145146151" lon="14.764204129177">
        <ele>177.4</ele>
        <time>2019-12-15T14:36:44Z</time>
      </trkpt>
      <trkpt lat="56.854218655414" lon="14.764240506623">
        <ele>177.6</ele>
        <time>2019-12-15T14:36:46Z</time>
      </trkpt>
      <trkpt lat="56.854348993959" lon="14.764506045215">
        <ele>178.4</ele>
        <time>2019-12-15T14:36:52Z</time>
      </trkpt>
      <trkpt lat="56.854408170173" lon="14.76464225109">
        <ele>179.6</ele>
        <time>2019-12-15T14:36:55Z</time>
      </trkpt>
      <trkpt lat="56.854554937242" lon="14.764840818301">
        <ele>180.6</ele>
        <time>2019-12-15T14:37:02Z</time>
      </trkpt>
      <trkpt lat="56.854710589125" lon="14.76474786303">
        <ele>181.6</ele>
        <time>2019-12-15T14:37:08Z</time>
      </trkpt>
      <trkpt lat="56.854759287964" lon="14.764688016264">
        <ele>181.8</ele>
        <time>2019-12-15T14:37:10Z</time>
      </trkpt>
      <trkpt lat="56.854795581591" lon="14.764700253838">
        <ele>182.2</ele>
        <time>2019-12-15T14:37:12Z</time>
      </trkpt>
      <trkpt lat="56.854833970693" lon="14.764680640192">
        <ele>182.6</ele>
        <time>2019-12-15T14:37:14Z</time>
      </trkpt>
      <trkpt lat="56.854977133545" lon="14.764649627162">
        <ele>183.6</ele>
        <time>2019-12-15T14:37:19Z</time>
      </trkpt>
      <trkpt lat="56.85506891535" lon="14.764630767887">
        <ele>184.4</ele>
        <time>2019-12-15T14:37:23Z</time>
      </trkpt>
      <trkpt lat="56.855105376615" lon="14.764621883073">
        <ele>184.8</ele>
        <time>2019-12-15T14:37:25Z</time>
      </trkpt>
      <trkpt lat="56.855169665788" lon="14.76459363607">
        <ele>184.8</ele>
        <time>2019-12-15T14:37:27Z</time>
      </trkpt>
      <trkpt lat="56.855251556951" lon="14.764499591152">
        <ele>185.4</ele>
        <time>2019-12-15T14:37:30Z</time>
      </trkpt>
      <trkpt lat="56.85528097742" lon="14.764511996364">
        <ele>185.8</ele>
        <time>2019-12-15T14:37:31Z</time>
      </trkpt>
      <trkpt lat="56.855338980168" lon="14.764506799586">
        <ele>186.6</ele>
        <time>2019-12-15T14:37:33Z</time>
      </trkpt>
      <trkpt lat="56.855358509995" lon="14.764494394374">
        <ele>187</ele>
        <time>2019-12-15T14:37:34Z</time>
      </trkpt>
      <trkpt lat="56.855568811866" lon="14.764402444931">
        <ele>185.8</ele>
        <time>2019-12-15T14:37:42Z</time>
      </trkpt>
      <trkpt lat="56.855609966995" lon="14.764367911503">
        <ele>184.4</ele>
        <time>2019-12-15T14:37:44Z</time>
      </trkpt>
      <trkpt lat="56.85564978102" lon="14.764316781913">
        <ele>183.6</ele>
        <time>2019-12-15T14:37:46Z</time>
      </trkpt>
      <trkpt lat="56.855669310847" lon="14.764319631759">
        <ele>183.4</ele>
        <time>2019-12-15T14:37:47Z</time>
      </trkpt>
      <trkpt lat="56.85568833776" lon="14.764347040572">
        <ele>183.2</ele>
        <time>2019-12-15T14:37:48Z</time>
      </trkpt>
      <trkpt lat="56.855759667729" lon="14.764494226736">
        <ele>182.4</ele>
        <time>2019-12-15T14:37:51Z</time>
      </trkpt>
      <trkpt lat="56.855824711273" lon="14.764668737894">
        <ele>181.2</ele>
        <time>2019-12-15T14:37:54Z</time>
      </trkpt>
      <trkpt lat="56.85599930625" lon="14.765529391386">
        <ele>181.6</ele>
        <time>2019-12-15T14:38:10Z</time>
      </trkpt>
      <trkpt lat="56.856343047969" lon="14.765955611001">
        <ele>180</ele>
        <time>2019-12-15T14:38:25Z</time>
      </trkpt>
      <trkpt lat="56.856379509234" lon="14.766065246253">
        <ele>178.8</ele>
        <time>2019-12-15T14:38:27Z</time>
      </trkpt>
      <trkpt lat="56.856449498099" lon="14.766206397449">
        <ele>177.4</ele>
        <time>2019-12-15T14:38:30Z</time>
      </trkpt>
      <trkpt lat="56.856479253844" lon="14.766239673592">
        <ele>177</ele>
        <time>2019-12-15T14:38:31Z</time>
      </trkpt>
      <trkpt lat="56.856542872465" lon="14.766283762386">
        <ele>176.2</ele>
        <time>2019-12-15T14:38:33Z</time>
      </trkpt>
      <trkpt lat="56.857107980163" lon="14.766248306949">
        <ele>175.6</ele>
        <time>2019-12-15T14:38:49Z</time>
      </trkpt>
      <trkpt lat="56.857357760783" lon="14.766414939121">
        <ele>176</ele>
        <time>2019-12-15T14:38:54Z</time>
      </trkpt>
      <trkpt lat="56.857573175613" lon="14.766584253501">
        <ele>176</ele>
        <time>2019-12-15T14:38:58Z</time>
      </trkpt>
      <trkpt lat="56.858064690229" lon="14.766404629384">
        <ele>177</ele>
        <time>2019-12-15T14:39:07Z</time>
      </trkpt>
      <trkpt lat="56.858210954384" lon="14.76637730439">
        <ele>177</ele>
        <time>2019-12-15T14:39:09Z</time>
      </trkpt>
      <trkpt lat="56.858419328418" lon="14.76656338257">
        <ele>176.8</ele>
        <time>2019-12-15T14:39:12Z</time>
      </trkpt>
      <trkpt lat="56.858667432658" lon="14.766833950302">
        <ele>176.2</ele>
        <time>2019-12-15T14:39:15Z</time>
      </trkpt>
      <trkpt lat="56.859118881792" lon="14.767496120402">
        <ele>177.2</ele>
        <time>2019-12-15T14:39:23Z</time>
      </trkpt>
      <trkpt lat="56.859349635499" lon="14.76803859697">
        <ele>175.2</ele>
        <time>2019-12-15T14:39:29Z</time>
      </trkpt>
      <trkpt lat="56.859434544146" lon="14.768207156979">
        <ele>175.2</ele>
        <time>2019-12-15T14:39:31Z</time>
      </trkpt>
      <trkpt lat="56.859497995129" lon="14.768408154941">
        <ele>175.6</ele>
        <time>2019-12-15T14:39:33Z</time>
      </trkpt>
      <trkpt lat="56.859498833319" lon="14.768629185644">
        <ele>176</ele>
        <time>2019-12-15T14:39:35Z</time>
      </trkpt>
      <trkpt lat="56.859505287382" lon="14.7689497095">
        <ele>175.6</ele>
        <time>2019-12-15T14:39:38Z</time>
      </trkpt>
      <trkpt lat="56.859526996503" lon="14.769104690831">
        <ele>175.2</ele>
        <time>2019-12-15T14:39:40Z</time>
      </trkpt>
      <trkpt lat="56.859557925714" lon="14.769251625538">
        <ele>175</ele>
        <time>2019-12-15T14:39:42Z</time>
      </trkpt>
      <trkpt lat="56.859637637583" lon="14.769551781377">
        <ele>175.2</ele>
        <time>2019-12-15T14:39:46Z</time>
      </trkpt>
      <trkpt lat="56.859652725003" lon="14.769867276093">
        <ele>175.2</ele>
        <time>2019-12-15T14:39:50Z</time>
      </trkpt>
      <trkpt lat="56.859687509888" lon="14.77020783269">
        <ele>175.6</ele>
        <time>2019-12-15T14:39:54Z</time>
      </trkpt>
      <trkpt lat="56.859775184562" lon="14.770472533092">
        <ele>176</ele>
        <time>2019-12-15T14:39:57Z</time>
      </trkpt>
      <trkpt lat="56.859802928651" lon="14.770516118972">
        <ele>176.2</ele>
        <time>2019-12-15T14:39:58Z</time>
      </trkpt>
      <trkpt lat="56.859895464827" lon="14.770631286278">
        <ele>177.6</ele>
        <time>2019-12-15T14:40:01Z</time>
      </trkpt>
      <trkpt lat="56.859970231375" lon="14.770770844913">
        <ele>178.6</ele>
        <time>2019-12-15T14:40:04Z</time>
      </trkpt>
      <trkpt lat="56.859977188352" lon="14.770842845434">
        <ele>178.8</ele>
        <time>2019-12-15T14:40:05Z</time>
      </trkpt>
      <trkpt lat="56.860002585509" lon="14.77182386301">
        <ele>179.8</ele>
        <time>2019-12-15T14:40:19Z</time>
      </trkpt>
      <trkpt lat="56.860014403988" lon="14.771887062536">
        <ele>180</ele>
        <time>2019-12-15T14:40:20Z</time>
      </trkpt>
      <trkpt lat="56.860007698468" lon="14.7723359971">
        <ele>180.6</ele>
        <time>2019-12-15T14:40:24Z</time>
      </trkpt>
      <trkpt lat="56.859983810053" lon="14.772462731428">
        <ele>181</ele>
        <time>2019-12-15T14:40:25Z</time>
      </trkpt>
      <trkpt lat="56.859989593564" lon="14.772567002264">
        <ele>181.2</ele>
        <time>2019-12-15T14:40:26Z</time>
      </trkpt>
      <trkpt lat="56.860003758975" lon="14.772771772081">
        <ele>181.4</ele>
        <time>2019-12-15T14:40:28Z</time>
      </trkpt>
      <trkpt lat="56.860053212185" lon="14.772924155023">
        <ele>181.2</ele>
        <time>2019-12-15T14:40:30Z</time>
      </trkpt>
      <trkpt lat="56.860299388588" lon="14.77346503903">
        <ele>179.8</ele>
        <time>2019-12-15T14:40:39Z</time>
      </trkpt>
      <trkpt lat="56.860402569777" lon="14.773606022588">
        <ele>179.6</ele>
        <time>2019-12-15T14:40:42Z</time>
      </trkpt>
      <trkpt lat="56.860727619859" lon="14.773567465848">
        <ele>179</ele>
        <time>2019-12-15T14:40:48Z</time>
      </trkpt>
      <trkpt lat="56.861021908368" lon="14.773650446658">
        <ele>179.4</ele>
        <time>2019-12-15T14:40:51Z</time>
      </trkpt>
      <trkpt lat="56.861221649045" lon="14.773851696077">
        <ele>179.6</ele>
        <time>2019-12-15T14:40:54Z</time>
      </trkpt>
      <trkpt lat="56.861295325946" lon="14.774026039597">
        <ele>179.6</ele>
        <time>2019-12-15T14:40:56Z</time>
      </trkpt>
      <trkpt lat="56.861361291499" lon="14.774187726448">
        <ele>179.6</ele>
        <time>2019-12-15T14:40:58Z</time>
      </trkpt>
      <trkpt lat="56.861431364183" lon="14.774322591219">
        <ele>179.6</ele>
        <time>2019-12-15T14:41:00Z</time>
      </trkpt>
      <trkpt lat="56.861582657478" lon="14.774580921377">
        <ele>180.2</ele>
        <time>2019-12-15T14:41:04Z</time>
      </trkpt>
      <trkpt lat="56.861700758449" lon="14.775033963072">
        <ele>181</ele>
        <time>2019-12-15T14:41:10Z</time>
      </trkpt>
      <trkpt lat="56.861722551389" lon="14.77510453867">
        <ele>181.2</ele>
        <time>2019-12-15T14:41:11Z</time>
      </trkpt>
      <trkpt lat="56.861819613791" lon="14.775308973211">
        <ele>182</ele>
        <time>2019-12-15T14:41:14Z</time>
      </trkpt>
      <trkpt lat="56.862020108839" lon="14.775747849495">
        <ele>181.8</ele>
        <time>2019-12-15T14:41:19Z</time>
      </trkpt>
      <trkpt lat="56.862099233975" lon="14.776085556246">
        <ele>181</ele>
        <time>2019-12-15T14:41:22Z</time>
      </trkpt>
      <trkpt lat="56.862129408815" lon="14.776325697681">
        <ele>180.4</ele>
        <time>2019-12-15T14:41:24Z</time>
      </trkpt>
      <trkpt lat="56.862224208104" lon="14.776665499907">
        <ele>180</ele>
        <time>2019-12-15T14:41:26Z</time>
      </trkpt>
      <trkpt lat="56.862302746507" lon="14.777568649632">
        <ele>179.2</ele>
        <time>2019-12-15T14:41:33Z</time>
      </trkpt>
      <trkpt lat="56.862375249942" lon="14.777738886021">
        <ele>179.4</ele>
        <time>2019-12-15T14:41:35Z</time>
      </trkpt>
      <trkpt lat="56.862439790572" lon="14.777931669721">
        <ele>179.4</ele>
        <time>2019-12-15T14:41:37Z</time>
      </trkpt>
      <trkpt lat="56.862693678323" lon="14.778466770217">
        <ele>180</ele>
        <time>2019-12-15T14:41:43Z</time>
      </trkpt>
      <trkpt lat="56.86281714371" lon="14.778699703218">
        <ele>179.8</ele>
        <time>2019-12-15T14:41:46Z</time>
      </trkpt>
      <trkpt lat="56.863018979862" lon="14.778851164151">
        <ele>179.4</ele>
        <time>2019-12-15T14:41:48Z</time>
      </trkpt>
      <trkpt lat="56.863215786874" lon="14.779024837119">
        <ele>178.8</ele>
        <time>2019-12-15T14:41:51Z</time>
      </trkpt>
      <trkpt lat="56.863280495142" lon="14.779055179597">
        <ele>178.8</ele>
        <time>2019-12-15T14:41:52Z</time>
      </trkpt>
      <trkpt lat="56.863342521202" lon="14.779080660573">
        <ele>178.8</ele>
        <time>2019-12-15T14:41:53Z</time>
      </trkpt>
      <trkpt lat="56.863456263585" lon="14.77915299637">
        <ele>179</ele>
        <time>2019-12-15T14:41:55Z</time>
      </trkpt>
      <trkpt lat="56.863645778344" lon="14.779385426457">
        <ele>179.4</ele>
        <time>2019-12-15T14:41:59Z</time>
      </trkpt>
      <trkpt lat="56.86385314655" lon="14.779703603381">
        <ele>177.8</ele>
        <time>2019-12-15T14:42:03Z</time>
      </trkpt>
      <trkpt lat="56.863910730203" lon="14.779779711033">
        <ele>177</ele>
        <time>2019-12-15T14:42:04Z</time>
      </trkpt>
      <trkpt lat="56.863945515088" lon="14.779849029346">
        <ele>176.4</ele>
        <time>2019-12-15T14:42:05Z</time>
      </trkpt>
      <trkpt lat="56.863979461783" lon="14.779904936619">
        <ele>176.2</ele>
        <time>2019-12-15T14:42:06Z</time>
      </trkpt>
      <trkpt lat="56.864130335983" lon="14.77991491108">
        <ele>176.2</ele>
        <time>2019-12-15T14:42:10Z</time>
      </trkpt>
      <trkpt lat="56.864292022834" lon="14.780063438348">
        <ele>176.6</ele>
        <time>2019-12-15T14:42:13Z</time>
      </trkpt>
      <trkpt lat="56.864396042213" lon="14.780230154339">
        <ele>176.8</ele>
        <time>2019-12-15T14:42:15Z</time>
      </trkpt>
      <trkpt lat="56.864553789571" lon="14.780649752253">
        <ele>177.6</ele>
        <time>2019-12-15T14:42:20Z</time>
      </trkpt>
      <trkpt lat="56.864617659649" lon="14.780841530125">
        <ele>177.8</ele>
        <time>2019-12-15T14:42:22Z</time>
      </trkpt>
      <trkpt lat="56.864770294048" lon="14.781550471227">
        <ele>178</ele>
        <time>2019-12-15T14:42:29Z</time>
      </trkpt>
      <trkpt lat="56.864819076706" lon="14.781780554382">
        <ele>178</ele>
        <time>2019-12-15T14:42:31Z</time>
      </trkpt>
      <trkpt lat="56.864925945931" lon="14.782039303635">
        <ele>178</ele>
        <time>2019-12-15T14:42:34Z</time>
      </trkpt>
      <trkpt lat="56.86505511101" lon="14.782325713158">
        <ele>178.6</ele>
        <time>2019-12-15T14:42:38Z</time>
      </trkpt>
      <trkpt lat="56.865086543135" lon="14.782395450566">
        <ele>178.6</ele>
        <time>2019-12-15T14:42:39Z</time>
      </trkpt>
      <trkpt lat="56.865120825106" lon="14.782458901549">
        <ele>178.8</ele>
        <time>2019-12-15T14:42:40Z</time>
      </trkpt>
      <trkpt lat="56.865259294094" lon="14.782782275251">
        <ele>179</ele>
        <time>2019-12-15T14:42:44Z</time>
      </trkpt>
      <trkpt lat="56.865341855809" lon="14.782946225215">
        <ele>178.8</ele>
        <time>2019-12-15T14:42:46Z</time>
      </trkpt>
      <trkpt lat="56.865371443916" lon="14.783205728839">
        <ele>178.4</ele>
        <time>2019-12-15T14:42:48Z</time>
      </trkpt>
      <trkpt lat="56.865488371421" lon="14.78371694092">
        <ele>177.6</ele>
        <time>2019-12-15T14:42:52Z</time>
      </trkpt>
      <trkpt lat="56.865548218187" lon="14.783817775177">
        <ele>177.4</ele>
        <time>2019-12-15T14:42:53Z</time>
      </trkpt>
      <trkpt lat="56.865728596675" lon="14.784047439237">
        <ele>176.6</ele>
        <time>2019-12-15T14:42:56Z</time>
      </trkpt>
      <trkpt lat="56.865750892529" lon="14.784129749495">
        <ele>176.2</ele>
        <time>2019-12-15T14:42:57Z</time>
      </trkpt>
      <trkpt lat="56.865770841451" lon="14.78428691012">
        <ele>175.8</ele>
        <time>2019-12-15T14:42:59Z</time>
      </trkpt>
      <trkpt lat="56.865746869217" lon="14.785316626535">
        <ele>176.4</ele>
        <time>2019-12-15T14:43:09Z</time>
      </trkpt>
      <trkpt lat="56.865722142612" lon="14.785523994741">
        <ele>176.2</ele>
        <time>2019-12-15T14:43:11Z</time>
      </trkpt>
      <trkpt lat="56.865680568388" lon="14.78593814442">
        <ele>175.8</ele>
        <time>2019-12-15T14:43:15Z</time>
      </trkpt>
      <trkpt lat="56.865546541807" lon="14.786631243731">
        <ele>176.2</ele>
        <time>2019-12-15T14:43:22Z</time>
      </trkpt>
      <trkpt lat="56.865398349815" lon="14.78722979521">
        <ele>176.6</ele>
        <time>2019-12-15T14:43:29Z</time>
      </trkpt>
      <trkpt lat="56.865354093383" lon="14.787502793693">
        <ele>177.6</ele>
        <time>2019-12-15T14:43:33Z</time>
      </trkpt>
      <trkpt lat="56.86527136403" lon="14.787853911484">
        <ele>178.6</ele>
        <time>2019-12-15T14:43:38Z</time>
      </trkpt>
      <trkpt lat="56.865231550005" lon="14.788138560808">
        <ele>179.4</ele>
        <time>2019-12-15T14:43:42Z</time>
      </trkpt>
      <trkpt lat="56.865182180614" lon="14.788418935363">
        <ele>179.6</ele>
        <time>2019-12-15T14:43:45Z</time>
      </trkpt>
      <trkpt lat="56.864960898454" lon="14.789211611646">
        <ele>180.2</ele>
        <time>2019-12-15T14:43:52Z</time>
      </trkpt>
      <trkpt lat="56.864742801416" lon="14.789965144456">
        <ele>180.4</ele>
        <time>2019-12-15T14:44:03Z</time>
      </trkpt>
      <trkpt lat="56.864731234394" lon="14.790140912899">
        <ele>180.6</ele>
        <time>2019-12-15T14:44:05Z</time>
      </trkpt>
      <trkpt lat="56.864727965453" lon="14.790321291387">
        <ele>180.6</ele>
        <time>2019-12-15T14:44:07Z</time>
      </trkpt>
      <trkpt lat="56.864732826955" lon="14.790420113988">
        <ele>180.8</ele>
        <time>2019-12-15T14:44:08Z</time>
      </trkpt>
      <trkpt lat="56.864767025107" lon="14.790797467126">
        <ele>180.6</ele>
        <time>2019-12-15T14:44:12Z</time>
      </trkpt>
      <trkpt lat="56.864675243302" lon="14.791151434763">
        <ele>180.6</ele>
        <time>2019-12-15T14:44:15Z</time>
      </trkpt>
      <trkpt lat="56.864695778957" lon="14.79151965163">
        <ele>180</ele>
        <time>2019-12-15T14:44:18Z</time>
      </trkpt>
      <trkpt lat="56.864722098123" lon="14.791639848076">
        <ele>179.6</ele>
        <time>2019-12-15T14:44:19Z</time>
      </trkpt>
      <trkpt lat="56.864737604638" lon="14.791782591833">
        <ele>179</ele>
        <time>2019-12-15T14:44:20Z</time>
      </trkpt>
      <trkpt lat="56.864804408381" lon="14.792014016092">
        <ele>178.4</ele>
        <time>2019-12-15T14:44:22Z</time>
      </trkpt>
      <trkpt lat="56.864845647329" lon="14.792107977191">
        <ele>178.2</ele>
        <time>2019-12-15T14:44:23Z</time>
      </trkpt>
      <trkpt lat="56.865105653867" lon="14.792393632343">
        <ele>177.6</ele>
        <time>2019-12-15T14:44:28Z</time>
      </trkpt>
      <trkpt lat="56.865482671729" lon="14.792468063615">
        <ele>179.6</ele>
        <time>2019-12-15T14:44:35Z</time>
      </trkpt>
      <trkpt lat="56.865773272202" lon="14.792533526254">
        <ele>180.6</ele>
        <time>2019-12-15T14:44:40Z</time>
      </trkpt>
      <trkpt lat="56.865982065331" lon="14.792622122937">
        <ele>181.6</ele>
        <time>2019-12-15T14:44:44Z</time>
      </trkpt>
      <trkpt lat="56.866027579048" lon="14.79264701718">
        <ele>181.8</ele>
        <time>2019-12-15T14:44:45Z</time>
      </trkpt>
      <trkpt lat="56.866168897882" lon="14.792710468163">
        <ele>182.2</ele>
        <time>2019-12-15T14:44:48Z</time>
      </trkpt>
      <trkpt lat="56.866328740715" lon="14.792792778421">
        <ele>182.4</ele>
        <time>2019-12-15T14:44:52Z</time>
      </trkpt>
      <trkpt lat="56.866434687931" lon="14.792987825234">
        <ele>182.6</ele>
        <time>2019-12-15T14:44:55Z</time>
      </trkpt>
      <trkpt lat="56.866501072579" lon="14.793136101045">
        <ele>182.6</ele>
        <time>2019-12-15T14:44:57Z</time>
      </trkpt>
      <trkpt lat="56.866546670115" lon="14.793314551696">
        <ele>182.4</ele>
        <time>2019-12-15T14:44:59Z</time>
      </trkpt>
      <trkpt lat="56.866618000084" lon="14.793597692278">
        <ele>181.8</ele>
        <time>2019-12-15T14:45:02Z</time>
      </trkpt>
      <trkpt lat="56.866669213493" lon="14.79373750237">
        <ele>181.4</ele>
        <time>2019-12-15T14:45:04Z</time>
      </trkpt>
      <trkpt lat="56.866760408565" lon="14.793882676878">
        <ele>181.2</ele>
        <time>2019-12-15T14:45:06Z</time>
      </trkpt>
      <trkpt lat="56.866900889209" lon="14.793990971026">
        <ele>181.2</ele>
        <time>2019-12-15T14:45:08Z</time>
      </trkpt>
      <trkpt lat="56.867231136069" lon="14.79424209275">
        <ele>180.8</ele>
        <time>2019-12-15T14:45:13Z</time>
      </trkpt>
      <trkpt lat="56.86727882908" lon="14.794318954773">
        <ele>180.6</ele>
        <time>2019-12-15T14:45:14Z</time>
      </trkpt>
      <trkpt lat="56.867379160423" lon="14.794456585571">
        <ele>180.4</ele>
        <time>2019-12-15T14:45:16Z</time>
      </trkpt>
      <trkpt lat="56.867463482337" lon="14.794574183628">
        <ele>180</ele>
        <time>2019-12-15T14:45:18Z</time>
      </trkpt>
      <trkpt lat="56.867837650353" lon="14.794924044134">
        <ele>179.6</ele>
        <time>2019-12-15T14:45:37Z</time>
      </trkpt>
      <trkpt lat="56.867925744122" lon="14.794896886778">
        <ele>178.4</ele>
        <time>2019-12-15T14:45:41Z</time>
      </trkpt>
      <trkpt lat="56.867954326401" lon="14.794884481566">
        <ele>178.2</ele>
        <time>2019-12-15T14:45:42Z</time>
      </trkpt>
      <trkpt lat="56.868118444003" lon="14.794425488722">
        <ele>177.6</ele>
        <time>2019-12-15T14:45:49Z</time>
      </trkpt>
      <trkpt lat="56.868212321283" lon="14.79410546778">
        <ele>177.4</ele>
        <time>2019-12-15T14:45:53Z</time>
      </trkpt>
      <trkpt lat="56.868345090579" lon="14.793819561171">
        <ele>177.4</ele>
        <time>2019-12-15T14:45:57Z</time>
      </trkpt>
      <trkpt lat="56.868408290105" lon="14.793687713884">
        <ele>177.6</ele>
        <time>2019-12-15T14:45:59Z</time>
      </trkpt>
      <trkpt lat="56.868469226518" lon="14.793500797514">
        <ele>177.8</ele>
        <time>2019-12-15T14:46:01Z</time>
      </trkpt>
      <trkpt lat="56.868784385958" lon="14.792789593299">
        <ele>177.8</ele>
        <time>2019-12-15T14:46:08Z</time>
      </trkpt>
      <trkpt lat="56.868909695363" lon="14.792450377806">
        <ele>177.6</ele>
        <time>2019-12-15T14:46:11Z</time>
      </trkpt>
      <trkpt lat="56.869213790695" lon="14.79163364547">
        <ele>177.4</ele>
        <time>2019-12-15T14:46:19Z</time>
      </trkpt>
      <trkpt lat="56.869289898347" lon="14.79128998757">
        <ele>177.4</ele>
        <time>2019-12-15T14:46:22Z</time>
      </trkpt>
      <trkpt lat="56.869470193016" lon="14.790320537016">
        <ele>177.2</ele>
        <time>2019-12-15T14:46:29Z</time>
      </trkpt>
      <trkpt lat="56.869653756626" lon="14.789369191366">
        <ele>177</ele>
        <time>2019-12-15T14:46:37Z</time>
      </trkpt>
      <trkpt lat="56.86974729863" lon="14.788978091912">
        <ele>176.6</ele>
        <time>2019-12-15T14:46:42Z</time>
      </trkpt>
      <trkpt lat="56.869841008272" lon="14.788977169903">
        <ele>176.6</ele>
        <time>2019-12-15T14:46:44Z</time>
      </trkpt>
      <trkpt lat="56.870307461007" lon="14.789308254953">
        <ele>176.8</ele>
        <time>2019-12-15T14:46:52Z</time>
      </trkpt>
      <trkpt lat="56.870395554776" lon="14.789381093664">
        <ele>177.2</ele>
        <time>2019-12-15T14:46:54Z</time>
      </trkpt>
      <trkpt lat="56.870571490857" lon="14.789567004206">
        <ele>178.4</ele>
        <time>2019-12-15T14:46:58Z</time>
      </trkpt>
      <trkpt lat="56.870664027033" lon="14.789687284471">
        <ele>179.6</ele>
        <time>2019-12-15T14:47:00Z</time>
      </trkpt>
      <trkpt lat="56.870831162119" lon="14.78989440122">
        <ele>180.8</ele>
        <time>2019-12-15T14:47:04Z</time>
      </trkpt>
      <trkpt lat="56.871085971879" lon="14.790196568715">
        <ele>182.2</ele>
        <time>2019-12-15T14:47:10Z</time>
      </trkpt>
      <trkpt lat="56.87123089493" lon="14.790384490913">
        <ele>183.2</ele>
        <time>2019-12-15T14:47:14Z</time>
      </trkpt>
      <trkpt lat="56.871383780786" lon="14.790587416712">
        <ele>184</ele>
        <time>2019-12-15T14:47:18Z</time>
      </trkpt>
      <trkpt lat="56.871463408836" lon="14.790711468832">
        <ele>184.2</ele>
        <time>2019-12-15T14:47:20Z</time>
      </trkpt>
      <trkpt lat="56.871613696303" lon="14.790961836185">
        <ele>184.2</ele>
        <time>2019-12-15T14:47:24Z</time>
      </trkpt>
      <trkpt lat="56.871676728191" lon="14.791085301572">
        <ele>184.2</ele>
        <time>2019-12-15T14:47:26Z</time>
      </trkpt>
      <trkpt lat="56.87196766394" lon="14.791516969422">
        <ele>183.2</ele>
        <time>2019-12-15T14:47:32Z</time>
      </trkpt>
      <trkpt lat="56.872131613904" lon="14.791760295979">
        <ele>182.2</ele>
        <time>2019-12-15T14:47:35Z</time>
      </trkpt>
      <trkpt lat="56.872631342782" lon="14.79225222969">
        <ele>183.2</ele>
        <time>2019-12-15T14:47:44Z</time>
      </trkpt>
      <trkpt lat="56.872674677205" lon="14.792311154447">
        <ele>183.4</ele>
        <time>2019-12-15T14:47:45Z</time>
      </trkpt>
      <trkpt lat="56.872821108998" lon="14.792564204008">
        <ele>184</ele>
        <time>2019-12-15T14:47:49Z</time>
      </trkpt>
      <trkpt lat="56.872908280758" lon="14.792660512039">
        <ele>184.2</ele>
        <time>2019-12-15T14:47:51Z</time>
      </trkpt>
      <trkpt lat="56.873217740506" lon="14.79278364215">
        <ele>184.4</ele>
        <time>2019-12-15T14:47:57Z</time>
      </trkpt>
      <trkpt lat="56.873296949461" lon="14.792757825898">
        <ele>184.2</ele>
        <time>2019-12-15T14:47:59Z</time>
      </trkpt>
      <trkpt lat="56.873363166471" lon="14.792516846273">
        <ele>184</ele>
        <time>2019-12-15T14:48:08Z</time>
      </trkpt>
    </trkseg>
  </trk>
</gpx>